﻿<?xml version="1.0" encoding="UTF-8" standalone="no"?>
<gpx xmlns="http://www.topografix.com/GPX/1/1" xmlns:gpxtpx="http://www.garmin.com/xmlschemas/TrackPointExtension/v1" xmlns:xsi="http://www.w3.org/2001/XMLSchema-instance" creator="Hribi.net" version="1.1" xsi:schemaLocation="http://www.topografix.com/GPX/1/1 http://www.topografix.com/GPX/1/1/gpx.xsd http://www.garmin.com/xmlschemas/TrackPointExtension/v1 http://www.garmin.com/xmlschemas/TrackPointExtensionv1.xsd">
  <metadata>
    <name>GPS sled</name>
    <desc>www.hribi.net</desc>
    <author>
      <name>hribi.net</name>
    </author>
    <link href="http://www.hribi.net">
      <text>Hribi.net</text>
    </link>
  </metadata>
  <trk>
    <trkseg>
      <trkpt lat="46.186351" lon="15.061824">
        <ele>726.8011619904</ele>
        <time>2015-12-05T16:38:42Z</time>
      </trkpt>
      <trkpt lat="46.186331" lon="15.061829">
        <ele>726.8011619904</ele>
        <time>2015-12-05T16:38:43Z</time>
      </trkpt>
      <trkpt lat="46.186314" lon="15.061840">
        <ele>726.8011619904</ele>
        <time>2015-12-05T16:38:46Z</time>
      </trkpt>
      <trkpt lat="46.186169" lon="15.061846">
        <ele>727.0011595584</ele>
        <time>2015-12-05T16:38:57Z</time>
      </trkpt>
      <trkpt lat="46.186126" lon="15.061913">
        <ele>727.3711550592</ele>
        <time>2015-12-05T16:39:04Z</time>
      </trkpt>
      <trkpt lat="46.186117" lon="15.062010">
        <ele>727.8111497088</ele>
        <time>2015-12-05T16:39:10Z</time>
      </trkpt>
      <trkpt lat="46.186090" lon="15.062118">
        <ele>728.3311433856</ele>
        <time>2015-12-05T16:39:20Z</time>
      </trkpt>
      <trkpt lat="46.186040" lon="15.062190">
        <ele>729.391130496</ele>
        <time>2015-12-05T16:39:29Z</time>
      </trkpt>
      <trkpt lat="46.186009" lon="15.062202">
        <ele>730.0011230784</ele>
        <time>2015-12-05T16:39:40Z</time>
      </trkpt>
      <trkpt lat="46.186004" lon="15.062209">
        <ele>730.3511188224</ele>
        <time>2015-12-05T16:39:55Z</time>
      </trkpt>
      <trkpt lat="46.186044" lon="15.062214">
        <ele>730.291119552</ele>
        <time>2015-12-05T16:40:02Z</time>
      </trkpt>
      <trkpt lat="46.186050" lon="15.062175">
        <ele>730.891112256</ele>
        <time>2015-12-05T16:40:14Z</time>
      </trkpt>
      <trkpt lat="46.186057" lon="15.062085">
        <ele>730.7511139584</ele>
        <time>2015-12-05T16:40:26Z</time>
      </trkpt>
      <trkpt lat="46.186027" lon="15.062110">
        <ele>730.5811160256</ele>
        <time>2015-12-05T16:40:39Z</time>
      </trkpt>
      <trkpt lat="46.186045" lon="15.062108">
        <ele>730.5611162688</ele>
        <time>2015-12-05T16:40:57Z</time>
      </trkpt>
      <trkpt lat="46.186060" lon="15.062103">
        <ele>730.5611162688</ele>
        <time>2015-12-05T16:41:12Z</time>
      </trkpt>
      <trkpt lat="46.186066" lon="15.062103">
        <ele>730.6811148096</ele>
        <time>2015-12-05T16:41:27Z</time>
      </trkpt>
      <trkpt lat="46.186049" lon="15.062104">
        <ele>730.6711149312</ele>
        <time>2015-12-05T16:41:47Z</time>
      </trkpt>
      <trkpt lat="46.186051" lon="15.062106">
        <ele>730.5311166336</ele>
        <time>2015-12-05T16:42:06Z</time>
      </trkpt>
      <trkpt lat="46.186061" lon="15.062098">
        <ele>730.591115904</ele>
        <time>2015-12-05T16:42:22Z</time>
      </trkpt>
      <trkpt lat="46.186061" lon="15.062122">
        <ele>730.6211155392</ele>
        <time>2015-12-05T16:42:37Z</time>
      </trkpt>
      <trkpt lat="46.186056" lon="15.062120">
        <ele>730.6211155392</ele>
        <time>2015-12-05T16:42:52Z</time>
      </trkpt>
      <trkpt lat="46.186031" lon="15.062156">
        <ele>730.7311142016</ele>
        <time>2015-12-05T16:43:05Z</time>
      </trkpt>
      <trkpt lat="46.186035" lon="15.062189">
        <ele>730.7111144448</ele>
        <time>2015-12-05T16:43:20Z</time>
      </trkpt>
      <trkpt lat="46.186093" lon="15.062230">
        <ele>730.4111180928</ele>
        <time>2015-12-05T16:43:28Z</time>
      </trkpt>
      <trkpt lat="46.186078" lon="15.062288">
        <ele>729.9511236864</ele>
        <time>2015-12-05T16:43:39Z</time>
      </trkpt>
      <trkpt lat="46.186028" lon="15.062390">
        <ele>730.6211155392</ele>
        <time>2015-12-05T16:43:50Z</time>
      </trkpt>
      <trkpt lat="46.185945" lon="15.062442">
        <ele>732.2110962048</ele>
        <time>2015-12-05T16:44:01Z</time>
      </trkpt>
      <trkpt lat="46.185846" lon="15.062503">
        <ele>733.7610773568</ele>
        <time>2015-12-05T16:44:11Z</time>
      </trkpt>
      <trkpt lat="46.185739" lon="15.062602">
        <ele>735.4610566848</ele>
        <time>2015-12-05T16:44:22Z</time>
      </trkpt>
      <trkpt lat="46.185672" lon="15.062690">
        <ele>737.591030784</ele>
        <time>2015-12-05T16:44:33Z</time>
      </trkpt>
      <trkpt lat="46.185632" lon="15.062779">
        <ele>739.5710067072</ele>
        <time>2015-12-05T16:44:42Z</time>
      </trkpt>
      <trkpt lat="46.185580" lon="15.062865">
        <ele>741.3809846976</ele>
        <time>2015-12-05T16:44:55Z</time>
      </trkpt>
      <trkpt lat="46.185525" lon="15.062925">
        <ele>743.9209538112</ele>
        <time>2015-12-05T16:45:08Z</time>
      </trkpt>
      <trkpt lat="46.185489" lon="15.063048">
        <ele>746.8209185472</ele>
        <time>2015-12-05T16:45:20Z</time>
      </trkpt>
      <trkpt lat="46.185533" lon="15.063130">
        <ele>748.690895808</ele>
        <time>2015-12-05T16:45:31Z</time>
      </trkpt>
      <trkpt lat="46.185568" lon="15.063294">
        <ele>750.4108748928</ele>
        <time>2015-12-05T16:45:43Z</time>
      </trkpt>
      <trkpt lat="46.185544" lon="15.063405">
        <ele>752.0308551936</ele>
        <time>2015-12-05T16:45:51Z</time>
      </trkpt>
      <trkpt lat="46.185537" lon="15.063540">
        <ele>753.5108371968</ele>
        <time>2015-12-05T16:46:02Z</time>
      </trkpt>
      <trkpt lat="46.185513" lon="15.063655">
        <ele>755.1808168896</ele>
        <time>2015-12-05T16:46:13Z</time>
      </trkpt>
      <trkpt lat="46.185513" lon="15.063785">
        <ele>756.7807974336</ele>
        <time>2015-12-05T16:46:25Z</time>
      </trkpt>
      <trkpt lat="46.185493" lon="15.063903">
        <ele>758.0307822336</ele>
        <time>2015-12-05T16:46:33Z</time>
      </trkpt>
      <trkpt lat="46.185464" lon="15.064029">
        <ele>759.2207677632</ele>
        <time>2015-12-05T16:46:43Z</time>
      </trkpt>
      <trkpt lat="46.185420" lon="15.064139">
        <ele>760.6507503744</ele>
        <time>2015-12-05T16:46:55Z</time>
      </trkpt>
      <trkpt lat="46.185373" lon="15.064233">
        <ele>762.9507224064</ele>
        <time>2015-12-05T16:47:07Z</time>
      </trkpt>
      <trkpt lat="46.185346" lon="15.064357">
        <ele>764.8806989376</ele>
        <time>2015-12-05T16:47:18Z</time>
      </trkpt>
      <trkpt lat="46.185385" lon="15.064483">
        <ele>766.090684224</ele>
        <time>2015-12-05T16:47:29Z</time>
      </trkpt>
      <trkpt lat="46.185431" lon="15.064614">
        <ele>765.9006865344</ele>
        <time>2015-12-05T16:47:39Z</time>
      </trkpt>
      <trkpt lat="46.185469" lon="15.064726">
        <ele>764.5107034368</ele>
        <time>2015-12-05T16:47:50Z</time>
      </trkpt>
      <trkpt lat="46.185520" lon="15.064822">
        <ele>762.7107253248</ele>
        <time>2015-12-05T16:48:01Z</time>
      </trkpt>
      <trkpt lat="46.185544" lon="15.064962">
        <ele>760.1807560896</ele>
        <time>2015-12-05T16:48:13Z</time>
      </trkpt>
      <trkpt lat="46.185561" lon="15.064997">
        <ele>758.690774208</ele>
        <time>2015-12-05T16:48:17Z</time>
      </trkpt>
      <trkpt lat="46.185549" lon="15.065160">
        <ele>755.8808083776</ele>
        <time>2015-12-05T16:48:28Z</time>
      </trkpt>
      <trkpt lat="46.185493" lon="15.065331">
        <ele>753.5508367104</ele>
        <time>2015-12-05T16:48:40Z</time>
      </trkpt>
      <trkpt lat="46.185494" lon="15.065452">
        <ele>752.3208516672</ele>
        <time>2015-12-05T16:48:48Z</time>
      </trkpt>
      <trkpt lat="46.185485" lon="15.065603">
        <ele>750.2508768384</ele>
        <time>2015-12-05T16:48:59Z</time>
      </trkpt>
      <trkpt lat="46.185476" lon="15.065773">
        <ele>747.8809056576</ele>
        <time>2015-12-05T16:49:10Z</time>
      </trkpt>
      <trkpt lat="46.185477" lon="15.065930">
        <ele>746.3709240192</ele>
        <time>2015-12-05T16:49:21Z</time>
      </trkpt>
      <trkpt lat="46.185471" lon="15.066132">
        <ele>744.1109515008</ele>
        <time>2015-12-05T16:49:33Z</time>
      </trkpt>
      <trkpt lat="46.185483" lon="15.066285">
        <ele>742.640969376</ele>
        <time>2015-12-05T16:49:42Z</time>
      </trkpt>
      <trkpt lat="46.185504" lon="15.066476">
        <ele>740.840991264</ele>
        <time>2015-12-05T16:49:54Z</time>
      </trkpt>
      <trkpt lat="46.185524" lon="15.066591">
        <ele>739.7810041536</ele>
        <time>2015-12-05T16:50:04Z</time>
      </trkpt>
      <trkpt lat="46.185531" lon="15.066769">
        <ele>738.4610202048</ele>
        <time>2015-12-05T16:50:16Z</time>
      </trkpt>
      <trkpt lat="46.185517" lon="15.066916">
        <ele>737.9710261632</ele>
        <time>2015-12-05T16:50:24Z</time>
      </trkpt>
      <trkpt lat="46.185533" lon="15.067038">
        <ele>738.0210255552</ele>
        <time>2015-12-05T16:50:33Z</time>
      </trkpt>
      <trkpt lat="46.185569" lon="15.067194">
        <ele>738.041025312</ele>
        <time>2015-12-05T16:50:43Z</time>
      </trkpt>
      <trkpt lat="46.185573" lon="15.067364">
        <ele>737.9510264064</ele>
        <time>2015-12-05T16:50:51Z</time>
      </trkpt>
      <trkpt lat="46.185554" lon="15.067550">
        <ele>737.6710298112</ele>
        <time>2015-12-05T16:51:03Z</time>
      </trkpt>
      <trkpt lat="46.185540" lon="15.067725">
        <ele>737.6310302976</ele>
        <time>2015-12-05T16:51:14Z</time>
      </trkpt>
      <trkpt lat="46.185561" lon="15.067891">
        <ele>737.3210340672</ele>
        <time>2015-12-05T16:51:26Z</time>
      </trkpt>
      <trkpt lat="46.185572" lon="15.068057">
        <ele>737.941026528</ele>
        <time>2015-12-05T16:51:37Z</time>
      </trkpt>
      <trkpt lat="46.185613" lon="15.068172">
        <ele>737.9010270144</ele>
        <time>2015-12-05T16:51:49Z</time>
      </trkpt>
      <trkpt lat="46.185603" lon="15.068222">
        <ele>738.0110256768</ele>
        <time>2015-12-05T16:51:52Z</time>
      </trkpt>
      <trkpt lat="46.185595" lon="15.068258">
        <ele>738.1610238528</ele>
        <time>2015-12-05T16:51:53Z</time>
      </trkpt>
      <trkpt lat="46.185570" lon="15.068397">
        <ele>739.3510093824</ele>
        <time>2015-12-05T16:52:01Z</time>
      </trkpt>
      <trkpt lat="46.185582" lon="15.068504">
        <ele>740.3109977088</ele>
        <time>2015-12-05T16:52:08Z</time>
      </trkpt>
      <trkpt lat="46.185558" lon="15.068492">
        <ele>740.6609934528</ele>
        <time>2015-12-05T16:52:16Z</time>
      </trkpt>
      <trkpt lat="46.185553" lon="15.068494">
        <ele>740.6609934528</ele>
        <time>2015-12-05T16:52:17Z</time>
      </trkpt>
      <trkpt lat="46.185501" lon="15.068518">
        <ele>740.6109940608</ele>
        <time>2015-12-05T16:52:32Z</time>
      </trkpt>
      <trkpt lat="46.185482" lon="15.068543">
        <ele>740.690993088</ele>
        <time>2015-12-05T16:52:47Z</time>
      </trkpt>
      <trkpt lat="46.185469" lon="15.068546">
        <ele>740.5309950336</ele>
        <time>2015-12-05T16:53:06Z</time>
      </trkpt>
      <trkpt lat="46.185473" lon="15.068592">
        <ele>740.540994912</ele>
        <time>2015-12-05T16:53:29Z</time>
      </trkpt>
      <trkpt lat="46.185491" lon="15.068580">
        <ele>740.4609958848</ele>
        <time>2015-12-05T16:53:37Z</time>
      </trkpt>
      <trkpt lat="46.185534" lon="15.068564">
        <ele>740.4309962496</ele>
        <time>2015-12-05T16:53:53Z</time>
      </trkpt>
      <trkpt lat="46.185522" lon="15.068575">
        <ele>740.1010002624</ele>
        <time>2015-12-05T16:54:15Z</time>
      </trkpt>
      <trkpt lat="46.185554" lon="15.068695">
        <ele>740.1609995328</ele>
        <time>2015-12-05T16:54:24Z</time>
      </trkpt>
      <trkpt lat="46.185555" lon="15.068791">
        <ele>740.4109964928</ele>
        <time>2015-12-05T16:54:31Z</time>
      </trkpt>
      <trkpt lat="46.185553" lon="15.068902">
        <ele>740.540994912</ele>
        <time>2015-12-05T16:54:38Z</time>
      </trkpt>
      <trkpt lat="46.185517" lon="15.069010">
        <ele>740.7809919936</ele>
        <time>2015-12-05T16:54:47Z</time>
      </trkpt>
      <trkpt lat="46.185494" lon="15.069116">
        <ele>741.0309889536</ele>
        <time>2015-12-05T16:54:57Z</time>
      </trkpt>
      <trkpt lat="46.185461" lon="15.069242">
        <ele>741.2709860352</ele>
        <time>2015-12-05T16:55:03Z</time>
      </trkpt>
      <trkpt lat="46.185445" lon="15.069349">
        <ele>741.5009832384</ele>
        <time>2015-12-05T16:55:10Z</time>
      </trkpt>
      <trkpt lat="46.185439" lon="15.069406">
        <ele>741.6509814144</ele>
        <time>2015-12-05T16:55:13Z</time>
      </trkpt>
      <trkpt lat="46.185417" lon="15.069554">
        <ele>741.940977888</ele>
        <time>2015-12-05T16:55:22Z</time>
      </trkpt>
      <trkpt lat="46.185415" lon="15.069683">
        <ele>742.2009747264</ele>
        <time>2015-12-05T16:55:30Z</time>
      </trkpt>
      <trkpt lat="46.185421" lon="15.069787">
        <ele>742.5009710784</ele>
        <time>2015-12-05T16:55:37Z</time>
      </trkpt>
      <trkpt lat="46.185391" lon="15.069929">
        <ele>742.9609654848</ele>
        <time>2015-12-05T16:55:47Z</time>
      </trkpt>
      <trkpt lat="46.185399" lon="15.069983">
        <ele>743.1709629312</ele>
        <time>2015-12-05T16:55:49Z</time>
      </trkpt>
      <trkpt lat="46.185400" lon="15.070082">
        <ele>743.4009601344</ele>
        <time>2015-12-05T16:55:55Z</time>
      </trkpt>
      <trkpt lat="46.185397" lon="15.070222">
        <ele>743.9109539328</ele>
        <time>2015-12-05T16:56:02Z</time>
      </trkpt>
      <trkpt lat="46.185398" lon="15.070324">
        <ele>744.3109490688</ele>
        <time>2015-12-05T16:56:08Z</time>
      </trkpt>
      <trkpt lat="46.185395" lon="15.070361">
        <ele>744.4109478528</ele>
        <time>2015-12-05T16:56:11Z</time>
      </trkpt>
      <trkpt lat="46.185400" lon="15.070398">
        <ele>744.5709459072</ele>
        <time>2015-12-05T16:56:12Z</time>
      </trkpt>
      <trkpt lat="46.185408" lon="15.070448">
        <ele>744.8109429888</ele>
        <time>2015-12-05T16:56:15Z</time>
      </trkpt>
      <trkpt lat="46.185407" lon="15.070528">
        <ele>745.4809348416</ele>
        <time>2015-12-05T16:56:20Z</time>
      </trkpt>
      <trkpt lat="46.185384" lon="15.070618">
        <ele>746.1809263296</ele>
        <time>2015-12-05T16:56:27Z</time>
      </trkpt>
      <trkpt lat="46.185355" lon="15.070745">
        <ele>747.1509145344</ele>
        <time>2015-12-05T16:56:38Z</time>
      </trkpt>
      <trkpt lat="46.185351" lon="15.070775">
        <ele>747.4609107648</ele>
        <time>2015-12-05T16:56:41Z</time>
      </trkpt>
      <trkpt lat="46.185354" lon="15.070871">
        <ele>748.24090128</ele>
        <time>2015-12-05T16:56:47Z</time>
      </trkpt>
      <trkpt lat="46.185316" lon="15.070988">
        <ele>749.0508914304</ele>
        <time>2015-12-05T16:56:56Z</time>
      </trkpt>
      <trkpt lat="46.185308" lon="15.071066">
        <ele>749.5808849856</ele>
        <time>2015-12-05T16:57:01Z</time>
      </trkpt>
      <trkpt lat="46.185270" lon="15.071183">
        <ele>750.6708717312</ele>
        <time>2015-12-05T16:57:08Z</time>
      </trkpt>
      <trkpt lat="46.185232" lon="15.071278">
        <ele>751.5208613952</ele>
        <time>2015-12-05T16:57:16Z</time>
      </trkpt>
      <trkpt lat="46.185220" lon="15.071349">
        <ele>752.1808533696</ele>
        <time>2015-12-05T16:57:21Z</time>
      </trkpt>
      <trkpt lat="46.185218" lon="15.071466">
        <ele>753.0708425472</ele>
        <time>2015-12-05T16:57:28Z</time>
      </trkpt>
      <trkpt lat="46.185226" lon="15.071577">
        <ele>754.3608268608</ele>
        <time>2015-12-05T16:57:36Z</time>
      </trkpt>
      <trkpt lat="46.185207" lon="15.071682">
        <ele>755.4308138496</ele>
        <time>2015-12-05T16:57:45Z</time>
      </trkpt>
      <trkpt lat="46.185202" lon="15.071813">
        <ele>756.6007996224</ele>
        <time>2015-12-05T16:57:56Z</time>
      </trkpt>
      <trkpt lat="46.185207" lon="15.071928">
        <ele>757.7807852736</ele>
        <time>2015-12-05T16:58:06Z</time>
      </trkpt>
      <trkpt lat="46.185192" lon="15.071963">
        <ele>758.0107824768</ele>
        <time>2015-12-05T16:58:08Z</time>
      </trkpt>
      <trkpt lat="46.185172" lon="15.072098">
        <ele>759.0607697088</ele>
        <time>2015-12-05T16:58:17Z</time>
      </trkpt>
      <trkpt lat="46.185158" lon="15.072128">
        <ele>759.3107666688</ele>
        <time>2015-12-05T16:58:19Z</time>
      </trkpt>
      <trkpt lat="46.185155" lon="15.072181">
        <ele>759.7207616832</ele>
        <time>2015-12-05T16:58:22Z</time>
      </trkpt>
      <trkpt lat="46.185144" lon="15.072288">
        <ele>760.8007485504</ele>
        <time>2015-12-05T16:58:27Z</time>
      </trkpt>
      <trkpt lat="46.185123" lon="15.072339">
        <ele>761.2107435648</ele>
        <time>2015-12-05T16:58:30Z</time>
      </trkpt>
      <trkpt lat="46.185124" lon="15.072375">
        <ele>761.4707404032</ele>
        <time>2015-12-05T16:58:33Z</time>
      </trkpt>
      <trkpt lat="46.185071" lon="15.072485">
        <ele>762.340729824</ele>
        <time>2015-12-05T16:58:39Z</time>
      </trkpt>
      <trkpt lat="46.185049" lon="15.072525">
        <ele>762.6207264192</ele>
        <time>2015-12-05T16:58:42Z</time>
      </trkpt>
      <trkpt lat="46.185020" lon="15.072601">
        <ele>763.1307202176</ele>
        <time>2015-12-05T16:58:49Z</time>
      </trkpt>
      <trkpt lat="46.184993" lon="15.072630">
        <ele>763.3707172992</ele>
        <time>2015-12-05T16:58:52Z</time>
      </trkpt>
      <trkpt lat="46.184939" lon="15.072672">
        <ele>764.3107058688</ele>
        <time>2015-12-05T16:58:56Z</time>
      </trkpt>
      <trkpt lat="46.184884" lon="15.072754">
        <ele>765.1806952896</ele>
        <time>2015-12-05T16:59:01Z</time>
      </trkpt>
      <trkpt lat="46.184842" lon="15.072803">
        <ele>765.390692736</ele>
        <time>2015-12-05T16:59:05Z</time>
      </trkpt>
      <trkpt lat="46.184795" lon="15.072928">
        <ele>766.0306849536</ele>
        <time>2015-12-05T16:59:13Z</time>
      </trkpt>
      <trkpt lat="46.184770" lon="15.073027">
        <ele>766.290681792</ele>
        <time>2015-12-05T16:59:19Z</time>
      </trkpt>
      <trkpt lat="46.184756" lon="15.073064">
        <ele>766.440679968</ele>
        <time>2015-12-05T16:59:21Z</time>
      </trkpt>
      <trkpt lat="46.184747" lon="15.073094">
        <ele>766.5106791168</ele>
        <time>2015-12-05T16:59:24Z</time>
      </trkpt>
      <trkpt lat="46.184724" lon="15.073169">
        <ele>766.8006755904</ele>
        <time>2015-12-05T16:59:28Z</time>
      </trkpt>
      <trkpt lat="46.184695" lon="15.073267">
        <ele>766.99067328</ele>
        <time>2015-12-05T16:59:35Z</time>
      </trkpt>
      <trkpt lat="46.184688" lon="15.073328">
        <ele>767.1006719424</ele>
        <time>2015-12-05T16:59:39Z</time>
      </trkpt>
      <trkpt lat="46.184671" lon="15.073395">
        <ele>767.290669632</ele>
        <time>2015-12-05T16:59:43Z</time>
      </trkpt>
      <trkpt lat="46.184681" lon="15.073515">
        <ele>767.5306667136</ele>
        <time>2015-12-05T16:59:48Z</time>
      </trkpt>
      <trkpt lat="46.184695" lon="15.073618">
        <ele>767.840662944</ele>
        <time>2015-12-05T16:59:55Z</time>
      </trkpt>
      <trkpt lat="46.184703" lon="15.073638">
        <ele>767.9206619712</ele>
        <time>2015-12-05T16:59:55Z</time>
      </trkpt>
      <trkpt lat="46.184745" lon="15.073809">
        <ele>768.5206546752</ele>
        <time>2015-12-05T17:00:05Z</time>
      </trkpt>
      <trkpt lat="46.184825" lon="15.073964">
        <ele>769.7706394752</ele>
        <time>2015-12-05T17:00:14Z</time>
      </trkpt>
      <trkpt lat="46.184852" lon="15.074007">
        <ele>769.9606371648</ele>
        <time>2015-12-05T17:00:17Z</time>
      </trkpt>
      <trkpt lat="46.184888" lon="15.074115">
        <ele>770.5206303552</ele>
        <time>2015-12-05T17:00:23Z</time>
      </trkpt>
      <trkpt lat="46.184965" lon="15.074255">
        <ele>771.940613088</ele>
        <time>2015-12-05T17:00:36Z</time>
      </trkpt>
      <trkpt lat="46.185000" lon="15.074388">
        <ele>772.99060032</ele>
        <time>2015-12-05T17:00:45Z</time>
      </trkpt>
      <trkpt lat="46.184989" lon="15.074554">
        <ele>773.6105927808</ele>
        <time>2015-12-05T17:00:54Z</time>
      </trkpt>
      <trkpt lat="46.184883" lon="15.074717">
        <ele>774.4005831744</ele>
        <time>2015-12-05T17:01:04Z</time>
      </trkpt>
      <trkpt lat="46.184793" lon="15.074805">
        <ele>775.9105648128</ele>
        <time>2015-12-05T17:01:16Z</time>
      </trkpt>
      <trkpt lat="46.184666" lon="15.074833">
        <ele>776.9605520448</ele>
        <time>2015-12-05T17:01:26Z</time>
      </trkpt>
      <trkpt lat="46.184568" lon="15.074942">
        <ele>777.4305463296</ele>
        <time>2015-12-05T17:01:35Z</time>
      </trkpt>
      <trkpt lat="46.184547" lon="15.074960">
        <ele>777.6505436544</ele>
        <time>2015-12-05T17:01:36Z</time>
      </trkpt>
      <trkpt lat="46.184468" lon="15.075069">
        <ele>778.7205306432</ele>
        <time>2015-12-05T17:01:46Z</time>
      </trkpt>
      <trkpt lat="46.184404" lon="15.075207">
        <ele>780.0605143488</ele>
        <time>2015-12-05T17:01:57Z</time>
      </trkpt>
      <trkpt lat="46.184381" lon="15.075322">
        <ele>781.3304989056</ele>
        <time>2015-12-05T17:02:06Z</time>
      </trkpt>
      <trkpt lat="46.184397" lon="15.075492">
        <ele>782.8304806656</ele>
        <time>2015-12-05T17:02:15Z</time>
      </trkpt>
      <trkpt lat="46.184436" lon="15.075708">
        <ele>784.3104626688</ele>
        <time>2015-12-05T17:02:25Z</time>
      </trkpt>
      <trkpt lat="46.184465" lon="15.075893">
        <ele>786.2304393216</ele>
        <time>2015-12-05T17:02:37Z</time>
      </trkpt>
      <trkpt lat="46.184474" lon="15.076053">
        <ele>788.0004177984</ele>
        <time>2015-12-05T17:02:48Z</time>
      </trkpt>
      <trkpt lat="46.184532" lon="15.076191">
        <ele>789.340401504</ele>
        <time>2015-12-05T17:02:57Z</time>
      </trkpt>
      <trkpt lat="46.184553" lon="15.076341">
        <ele>790.99038144</ele>
        <time>2015-12-05T17:03:08Z</time>
      </trkpt>
      <trkpt lat="46.184585" lon="15.076470">
        <ele>791.690372928</ele>
        <time>2015-12-05T17:03:18Z</time>
      </trkpt>
      <trkpt lat="46.184599" lon="15.076649">
        <ele>792.3203652672</ele>
        <time>2015-12-05T17:03:27Z</time>
      </trkpt>
      <trkpt lat="46.184615" lon="15.076802">
        <ele>793.090355904</ele>
        <time>2015-12-05T17:03:35Z</time>
      </trkpt>
      <trkpt lat="46.184639" lon="15.077008">
        <ele>793.6003497024</ele>
        <time>2015-12-05T17:03:46Z</time>
      </trkpt>
      <trkpt lat="46.184671" lon="15.077070">
        <ele>793.9603453248</ele>
        <time>2015-12-05T17:03:53Z</time>
      </trkpt>
      <trkpt lat="46.184734" lon="15.077230">
        <ele>795.140330976</ele>
        <time>2015-12-05T17:04:05Z</time>
      </trkpt>
      <trkpt lat="46.184737" lon="15.077260">
        <ele>795.3003290304</ele>
        <time>2015-12-05T17:04:06Z</time>
      </trkpt>
      <trkpt lat="46.184761" lon="15.077468">
        <ele>796.7003120064</ele>
        <time>2015-12-05T17:04:18Z</time>
      </trkpt>
      <trkpt lat="46.184774" lon="15.077501">
        <ele>797.1303067776</ele>
        <time>2015-12-05T17:04:22Z</time>
      </trkpt>
      <trkpt lat="46.184845" lon="15.077551">
        <ele>797.4703026432</ele>
        <time>2015-12-05T17:04:43Z</time>
      </trkpt>
      <trkpt lat="46.184847" lon="15.077544">
        <ele>797.4903024</ele>
        <time>2015-12-05T17:04:52Z</time>
      </trkpt>
      <trkpt lat="46.184886" lon="15.077552">
        <ele>797.6003010624</ele>
        <time>2015-12-05T17:05:08Z</time>
      </trkpt>
      <trkpt lat="46.184868" lon="15.077553">
        <ele>797.2803049536</ele>
        <time>2015-12-05T17:05:31Z</time>
      </trkpt>
      <trkpt lat="46.184870" lon="15.077560">
        <ele>797.340304224</ele>
        <time>2015-12-05T17:05:42Z</time>
      </trkpt>
      <trkpt lat="46.184891" lon="15.077525">
        <ele>797.6803000896</ele>
        <time>2015-12-05T17:05:56Z</time>
      </trkpt>
      <trkpt lat="46.184903" lon="15.077576">
        <ele>797.4803025216</ele>
        <time>2015-12-05T17:06:14Z</time>
      </trkpt>
      <trkpt lat="46.184917" lon="15.077636">
        <ele>798.0002961984</ele>
        <time>2015-12-05T17:06:25Z</time>
      </trkpt>
      <trkpt lat="46.184950" lon="15.077735">
        <ele>799.8102741888</ele>
        <time>2015-12-05T17:06:39Z</time>
      </trkpt>
      <trkpt lat="46.184974" lon="15.077873">
        <ele>802.040247072</ele>
        <time>2015-12-05T17:06:50Z</time>
      </trkpt>
      <trkpt lat="46.185002" lon="15.078003">
        <ele>803.7102267648</ele>
        <time>2015-12-05T17:06:59Z</time>
      </trkpt>
      <trkpt lat="46.185045" lon="15.078117">
        <ele>805.0702102272</ele>
        <time>2015-12-05T17:07:10Z</time>
      </trkpt>
      <trkpt lat="46.185049" lon="15.078261">
        <ele>807.090185664</ele>
        <time>2015-12-05T17:07:19Z</time>
      </trkpt>
      <trkpt lat="46.185053" lon="15.078390">
        <ele>808.8001648704</ele>
        <time>2015-12-05T17:07:30Z</time>
      </trkpt>
      <trkpt lat="46.185041" lon="15.078496">
        <ele>810.1201488192</ele>
        <time>2015-12-05T17:07:38Z</time>
      </trkpt>
      <trkpt lat="46.185076" lon="15.078655">
        <ele>811.690129728</ele>
        <time>2015-12-05T17:07:49Z</time>
      </trkpt>
      <trkpt lat="46.185100" lon="15.078813">
        <ele>812.8201159872</ele>
        <time>2015-12-05T17:08:00Z</time>
      </trkpt>
      <trkpt lat="46.185134" lon="15.078972">
        <ele>813.840103584</ele>
        <time>2015-12-05T17:08:09Z</time>
      </trkpt>
      <trkpt lat="46.185208" lon="15.079194">
        <ele>815.1500876544</ele>
        <time>2015-12-05T17:08:23Z</time>
      </trkpt>
      <trkpt lat="46.185244" lon="15.079322">
        <ele>815.4800836416</ele>
        <time>2015-12-05T17:08:31Z</time>
      </trkpt>
      <trkpt lat="46.185260" lon="15.079426">
        <ele>815.8600790208</ele>
        <time>2015-12-05T17:08:38Z</time>
      </trkpt>
      <trkpt lat="46.185268" lon="15.079580">
        <ele>816.0100771968</ele>
        <time>2015-12-05T17:08:47Z</time>
      </trkpt>
      <trkpt lat="46.185284" lon="15.079744">
        <ele>816.6700691712</ele>
        <time>2015-12-05T17:08:58Z</time>
      </trkpt>
      <trkpt lat="46.185296" lon="15.079896">
        <ele>817.340061024</ele>
        <time>2015-12-05T17:09:07Z</time>
      </trkpt>
      <trkpt lat="46.185301" lon="15.079916">
        <ele>817.440059808</ele>
        <time>2015-12-05T17:09:07Z</time>
      </trkpt>
      <trkpt lat="46.185275" lon="15.080124">
        <ele>818.6300453376</ele>
        <time>2015-12-05T17:09:19Z</time>
      </trkpt>
      <trkpt lat="46.185276" lon="15.080175">
        <ele>818.8200430272</ele>
        <time>2015-12-05T17:09:22Z</time>
      </trkpt>
      <trkpt lat="46.185294" lon="15.080333">
        <ele>819.4100358528</ele>
        <time>2015-12-05T17:09:32Z</time>
      </trkpt>
      <trkpt lat="46.185267" lon="15.080470">
        <ele>819.8600303808</ele>
        <time>2015-12-05T17:09:38Z</time>
      </trkpt>
      <trkpt lat="46.185256" lon="15.080604">
        <ele>820.8100188288</ele>
        <time>2015-12-05T17:09:46Z</time>
      </trkpt>
      <trkpt lat="46.185262" lon="15.080687">
        <ele>821.540009952</ele>
        <time>2015-12-05T17:09:53Z</time>
      </trkpt>
      <trkpt lat="46.185294" lon="15.080903">
        <ele>822.8099945088</ele>
        <time>2015-12-05T17:10:05Z</time>
      </trkpt>
      <trkpt lat="46.185322" lon="15.081078">
        <ele>824.3799754176</ele>
        <time>2015-12-05T17:10:16Z</time>
      </trkpt>
      <trkpt lat="46.185352" lon="15.081247">
        <ele>826.3299517056</ele>
        <time>2015-12-05T17:10:28Z</time>
      </trkpt>
      <trkpt lat="46.185423" lon="15.081445">
        <ele>828.1599294528</ele>
        <time>2015-12-05T17:10:39Z</time>
      </trkpt>
      <trkpt lat="46.185443" lon="15.081632">
        <ele>829.8099093888</ele>
        <time>2015-12-05T17:10:48Z</time>
      </trkpt>
      <trkpt lat="46.185467" lon="15.081743">
        <ele>831.7698855552</ele>
        <time>2015-12-05T17:10:59Z</time>
      </trkpt>
      <trkpt lat="46.185495" lon="15.081848">
        <ele>833.8498602624</ele>
        <time>2015-12-05T17:11:10Z</time>
      </trkpt>
      <trkpt lat="46.185471" lon="15.081927">
        <ele>835.189843968</ele>
        <time>2015-12-05T17:11:17Z</time>
      </trkpt>
      <trkpt lat="46.185461" lon="15.081966">
        <ele>836.7698247552</ele>
        <time>2015-12-05T17:11:30Z</time>
      </trkpt>
      <trkpt lat="46.185466" lon="15.081967">
        <ele>837.0198217152</ele>
        <time>2015-12-05T17:11:45Z</time>
      </trkpt>
      <trkpt lat="46.185450" lon="15.081994">
        <ele>837.1298203776</ele>
        <time>2015-12-05T17:12:00Z</time>
      </trkpt>
      <trkpt lat="46.185450" lon="15.082000">
        <ele>837.1798197696</ele>
        <time>2015-12-05T17:12:16Z</time>
      </trkpt>
      <trkpt lat="46.185464" lon="15.082041">
        <ele>837.0298215936</ele>
        <time>2015-12-05T17:12:30Z</time>
      </trkpt>
      <trkpt lat="46.185465" lon="15.082069">
        <ele>837.0498213504</ele>
        <time>2015-12-05T17:12:45Z</time>
      </trkpt>
      <trkpt lat="46.185457" lon="15.082142">
        <ele>838.1798076096</ele>
        <time>2015-12-05T17:12:54Z</time>
      </trkpt>
      <trkpt lat="46.185445" lon="15.082255">
        <ele>840.6097780608</ele>
        <time>2015-12-05T17:13:08Z</time>
      </trkpt>
      <trkpt lat="46.185452" lon="15.082354">
        <ele>842.4197560512</ele>
        <time>2015-12-05T17:13:18Z</time>
      </trkpt>
      <trkpt lat="46.185429" lon="15.082476">
        <ele>844.939725408</ele>
        <time>2015-12-05T17:13:29Z</time>
      </trkpt>
      <trkpt lat="46.185413" lon="15.082564">
        <ele>847.0197001152</ele>
        <time>2015-12-05T17:13:39Z</time>
      </trkpt>
      <trkpt lat="46.185393" lon="15.082694">
        <ele>848.5296817536</ele>
        <time>2015-12-05T17:13:48Z</time>
      </trkpt>
      <trkpt lat="46.185425" lon="15.082856">
        <ele>850.1196624192</ele>
        <time>2015-12-05T17:13:59Z</time>
      </trkpt>
      <trkpt lat="46.185454" lon="15.082960">
        <ele>851.3496474624</ele>
        <time>2015-12-05T17:14:07Z</time>
      </trkpt>
      <trkpt lat="46.185482" lon="15.083105">
        <ele>853.2096248448</ele>
        <time>2015-12-05T17:14:20Z</time>
      </trkpt>
      <trkpt lat="46.185546" lon="15.083215">
        <ele>854.5996079424</ele>
        <time>2015-12-05T17:14:31Z</time>
      </trkpt>
      <trkpt lat="46.185575" lon="15.083331">
        <ele>856.089589824</ele>
        <time>2015-12-05T17:14:41Z</time>
      </trkpt>
      <trkpt lat="46.185639" lon="15.083445">
        <ele>858.2995629504</ele>
        <time>2015-12-05T17:14:54Z</time>
      </trkpt>
      <trkpt lat="46.185704" lon="15.083603">
        <ele>860.3695377792</ele>
        <time>2015-12-05T17:15:06Z</time>
      </trkpt>
      <trkpt lat="46.185738" lon="15.083681">
        <ele>862.2295151616</ele>
        <time>2015-12-05T17:15:17Z</time>
      </trkpt>
      <trkpt lat="46.185790" lon="15.083768">
        <ele>864.2994899904</ele>
        <time>2015-12-05T17:15:29Z</time>
      </trkpt>
      <trkpt lat="46.185822" lon="15.083874">
        <ele>866.2694660352</ele>
        <time>2015-12-05T17:15:40Z</time>
      </trkpt>
      <trkpt lat="46.185863" lon="15.083963">
        <ele>868.0294446336</ele>
        <time>2015-12-05T17:15:52Z</time>
      </trkpt>
      <trkpt lat="46.185883" lon="15.084070">
        <ele>870.039420192</ele>
        <time>2015-12-05T17:16:06Z</time>
      </trkpt>
      <trkpt lat="46.185880" lon="15.084146">
        <ele>871.3594041408</ele>
        <time>2015-12-05T17:16:15Z</time>
      </trkpt>
      <trkpt lat="46.185879" lon="15.084306">
        <ele>873.439378848</ele>
        <time>2015-12-05T17:16:29Z</time>
      </trkpt>
      <trkpt lat="46.185858" lon="15.084434">
        <ele>875.7493507584</ele>
        <time>2015-12-05T17:16:41Z</time>
      </trkpt>
      <trkpt lat="46.185860" lon="15.084559">
        <ele>878.1093220608</ele>
        <time>2015-12-05T17:16:53Z</time>
      </trkpt>
      <trkpt lat="46.185835" lon="15.084673">
        <ele>879.7993015104</ele>
        <time>2015-12-05T17:17:04Z</time>
      </trkpt>
      <trkpt lat="46.185832" lon="15.084847">
        <ele>881.5192805952</ele>
        <time>2015-12-05T17:17:15Z</time>
      </trkpt>
      <trkpt lat="46.185863" lon="15.084947">
        <ele>883.4092576128</ele>
        <time>2015-12-05T17:17:24Z</time>
      </trkpt>
      <trkpt lat="46.185896" lon="15.085079">
        <ele>885.2292354816</ele>
        <time>2015-12-05T17:17:35Z</time>
      </trkpt>
      <trkpt lat="46.185914" lon="15.085209">
        <ele>887.0092138368</ele>
        <time>2015-12-05T17:17:44Z</time>
      </trkpt>
      <trkpt lat="46.185944" lon="15.085304">
        <ele>888.6991932864</ele>
        <time>2015-12-05T17:17:55Z</time>
      </trkpt>
      <trkpt lat="46.186005" lon="15.085470">
        <ele>890.3291734656</ele>
        <time>2015-12-05T17:18:07Z</time>
      </trkpt>
      <trkpt lat="46.186051" lon="15.085624">
        <ele>892.1991507264</ele>
        <time>2015-12-05T17:18:18Z</time>
      </trkpt>
      <trkpt lat="46.186077" lon="15.085748">
        <ele>893.3291369856</ele>
        <time>2015-12-05T17:18:27Z</time>
      </trkpt>
      <trkpt lat="46.186130" lon="15.085893">
        <ele>895.0591159488</ele>
        <time>2015-12-05T17:18:40Z</time>
      </trkpt>
      <trkpt lat="46.186198" lon="15.086032">
        <ele>896.4490990464</ele>
        <time>2015-12-05T17:18:49Z</time>
      </trkpt>
      <trkpt lat="46.186266" lon="15.086211">
        <ele>898.6490722944</ele>
        <time>2015-12-05T17:19:01Z</time>
      </trkpt>
      <trkpt lat="46.186294" lon="15.086310">
        <ele>900.3190519872</ele>
        <time>2015-12-05T17:19:12Z</time>
      </trkpt>
      <trkpt lat="46.186317" lon="15.086406">
        <ele>901.8090338688</ele>
        <time>2015-12-05T17:19:21Z</time>
      </trkpt>
      <trkpt lat="46.186284" lon="15.086467">
        <ele>903.48901344</ele>
        <time>2015-12-05T17:19:35Z</time>
      </trkpt>
      <trkpt lat="46.186256" lon="15.086466">
        <ele>905.5789880256</ele>
        <time>2015-12-05T17:19:47Z</time>
      </trkpt>
      <trkpt lat="46.186254" lon="15.086432">
        <ele>905.9989829184</ele>
        <time>2015-12-05T17:19:51Z</time>
      </trkpt>
      <trkpt lat="46.186215" lon="15.086357">
        <ele>906.4189778112</ele>
        <time>2015-12-05T17:20:06Z</time>
      </trkpt>
      <trkpt lat="46.186194" lon="15.086424">
        <ele>908.338954464</ele>
        <time>2015-12-05T17:20:17Z</time>
      </trkpt>
      <trkpt lat="46.186187" lon="15.086525">
        <ele>910.7189255232</ele>
        <time>2015-12-05T17:20:28Z</time>
      </trkpt>
      <trkpt lat="46.186210" lon="15.086657">
        <ele>913.2688945152</ele>
        <time>2015-12-05T17:20:38Z</time>
      </trkpt>
      <trkpt lat="46.186213" lon="15.086812">
        <ele>915.788863872</ele>
        <time>2015-12-05T17:20:49Z</time>
      </trkpt>
      <trkpt lat="46.186251" lon="15.086915">
        <ele>918.088835904</ele>
        <time>2015-12-05T17:21:00Z</time>
      </trkpt>
      <trkpt lat="46.186259" lon="15.086991">
        <ele>919.5788177856</ele>
        <time>2015-12-05T17:21:09Z</time>
      </trkpt>
      <trkpt lat="46.186256" lon="15.087058">
        <ele>921.7987907904</ele>
        <time>2015-12-05T17:21:20Z</time>
      </trkpt>
      <trkpt lat="46.186277" lon="15.087159">
        <ele>924.0087639168</ele>
        <time>2015-12-05T17:21:31Z</time>
      </trkpt>
      <trkpt lat="46.186294" lon="15.087291">
        <ele>925.7087432448</ele>
        <time>2015-12-05T17:21:43Z</time>
      </trkpt>
      <trkpt lat="46.186281" lon="15.087368">
        <ele>926.9687279232</ele>
        <time>2015-12-05T17:21:53Z</time>
      </trkpt>
      <trkpt lat="46.186310" lon="15.087470">
        <ele>929.8786925376</ele>
        <time>2015-12-05T17:22:05Z</time>
      </trkpt>
      <trkpt lat="46.186299" lon="15.087610">
        <ele>931.1586769728</ele>
        <time>2015-12-05T17:22:14Z</time>
      </trkpt>
      <trkpt lat="46.186339" lon="15.087683">
        <ele>931.138677216</ele>
        <time>2015-12-05T17:22:25Z</time>
      </trkpt>
      <trkpt lat="46.186370" lon="15.087797">
        <ele>931.3686744192</ele>
        <time>2015-12-05T17:22:33Z</time>
      </trkpt>
      <trkpt lat="46.186408" lon="15.087894">
        <ele>932.438661408</ele>
        <time>2015-12-05T17:22:44Z</time>
      </trkpt>
      <trkpt lat="46.186446" lon="15.088046">
        <ele>934.2686391552</ele>
        <time>2015-12-05T17:22:56Z</time>
      </trkpt>
      <trkpt lat="46.186512" lon="15.088135">
        <ele>935.2686269952</ele>
        <time>2015-12-05T17:23:07Z</time>
      </trkpt>
      <trkpt lat="46.186537" lon="15.088299">
        <ele>936.5986108224</ele>
        <time>2015-12-05T17:23:19Z</time>
      </trkpt>
      <trkpt lat="46.186590" lon="15.088452">
        <ele>938.2785903936</ele>
        <time>2015-12-05T17:23:31Z</time>
      </trkpt>
      <trkpt lat="46.186636" lon="15.088531">
        <ele>939.4685759232</ele>
        <time>2015-12-05T17:23:41Z</time>
      </trkpt>
      <trkpt lat="46.186676" lon="15.088621">
        <ele>940.1485676544</ele>
        <time>2015-12-05T17:23:49Z</time>
      </trkpt>
      <trkpt lat="46.186707" lon="15.088744">
        <ele>939.9985694784</ele>
        <time>2015-12-05T17:23:58Z</time>
      </trkpt>
      <trkpt lat="46.186736" lon="15.088870">
        <ele>939.5985743424</ele>
        <time>2015-12-05T17:24:05Z</time>
      </trkpt>
      <trkpt lat="46.186766" lon="15.088948">
        <ele>939.4785758016</ele>
        <time>2015-12-05T17:24:10Z</time>
      </trkpt>
      <trkpt lat="46.186843" lon="15.089099">
        <ele>939.4485761664</ele>
        <time>2015-12-05T17:24:21Z</time>
      </trkpt>
      <trkpt lat="46.186894" lon="15.089189">
        <ele>940.7185607232</ele>
        <time>2015-12-05T17:24:29Z</time>
      </trkpt>
      <trkpt lat="46.186945" lon="15.089301">
        <ele>943.2285302016</ele>
        <time>2015-12-05T17:24:40Z</time>
      </trkpt>
      <trkpt lat="46.186992" lon="15.089378">
        <ele>944.4185157312</ele>
        <time>2015-12-05T17:24:48Z</time>
      </trkpt>
      <trkpt lat="46.187031" lon="15.089446">
        <ele>945.6585006528</ele>
        <time>2015-12-05T17:24:56Z</time>
      </trkpt>
      <trkpt lat="46.187053" lon="15.089552">
        <ele>947.5084781568</ele>
        <time>2015-12-05T17:25:07Z</time>
      </trkpt>
      <trkpt lat="46.187085" lon="15.089651">
        <ele>949.338455904</ele>
        <time>2015-12-05T17:25:17Z</time>
      </trkpt>
      <trkpt lat="46.187127" lon="15.089747">
        <ele>951.2384328</ele>
        <time>2015-12-05T17:25:29Z</time>
      </trkpt>
      <trkpt lat="46.187153" lon="15.089780">
        <ele>952.6584155328</ele>
        <time>2015-12-05T17:25:38Z</time>
      </trkpt>
      <trkpt lat="46.187192" lon="15.089853">
        <ele>954.3483949824</ele>
        <time>2015-12-05T17:25:50Z</time>
      </trkpt>
      <trkpt lat="46.187245" lon="15.089942">
        <ele>956.5183685952</ele>
        <time>2015-12-05T17:26:01Z</time>
      </trkpt>
      <trkpt lat="46.187284" lon="15.090033">
        <ele>958.5283441536</ele>
        <time>2015-12-05T17:26:13Z</time>
      </trkpt>
      <trkpt lat="46.187335" lon="15.090113">
        <ele>961.0183138752</ele>
        <time>2015-12-05T17:26:27Z</time>
      </trkpt>
      <trkpt lat="46.187387" lon="15.090197">
        <ele>963.5482831104</ele>
        <time>2015-12-05T17:26:40Z</time>
      </trkpt>
      <trkpt lat="46.187419" lon="15.090297">
        <ele>966.0782523456</ele>
        <time>2015-12-05T17:26:52Z</time>
      </trkpt>
      <trkpt lat="46.187457" lon="15.090397">
        <ele>969.0282164736</ele>
        <time>2015-12-05T17:27:06Z</time>
      </trkpt>
      <trkpt lat="46.187478" lon="15.090470">
        <ele>971.1681904512</ele>
        <time>2015-12-05T17:27:15Z</time>
      </trkpt>
      <trkpt lat="46.187517" lon="15.090566">
        <ele>974.1681539712</ele>
        <time>2015-12-05T17:27:27Z</time>
      </trkpt>
      <trkpt lat="46.187562" lon="15.090655">
        <ele>976.538125152</ele>
        <time>2015-12-05T17:27:40Z</time>
      </trkpt>
      <trkpt lat="46.187598" lon="15.090743">
        <ele>978.5781003456</ele>
        <time>2015-12-05T17:27:49Z</time>
      </trkpt>
      <trkpt lat="46.187639" lon="15.090816">
        <ele>980.9280717696</ele>
        <time>2015-12-05T17:28:01Z</time>
      </trkpt>
      <trkpt lat="46.187696" lon="15.090894">
        <ele>983.2680433152</ele>
        <time>2015-12-05T17:28:13Z</time>
      </trkpt>
      <trkpt lat="46.187735" lon="15.090933">
        <ele>984.7480253184</ele>
        <time>2015-12-05T17:28:24Z</time>
      </trkpt>
      <trkpt lat="46.187770" lon="15.091017">
        <ele>986.3580057408</ele>
        <time>2015-12-05T17:28:35Z</time>
      </trkpt>
      <trkpt lat="46.187825" lon="15.091110">
        <ele>988.6679776512</ele>
        <time>2015-12-05T17:28:46Z</time>
      </trkpt>
      <trkpt lat="46.187889" lon="15.091212">
        <ele>991.3179454272</ele>
        <time>2015-12-05T17:28:58Z</time>
      </trkpt>
      <trkpt lat="46.187912" lon="15.091274">
        <ele>992.937925728</ele>
        <time>2015-12-05T17:29:06Z</time>
      </trkpt>
      <trkpt lat="46.187933" lon="15.091334">
        <ele>995.3578963008</ele>
        <time>2015-12-05T17:29:15Z</time>
      </trkpt>
      <trkpt lat="46.187988" lon="15.091393">
        <ele>996.7078798848</ele>
        <time>2015-12-05T17:29:25Z</time>
      </trkpt>
      <trkpt lat="46.188029" lon="15.091450">
        <ele>998.3478599424</ele>
        <time>2015-12-05T17:29:36Z</time>
      </trkpt>
      <trkpt lat="46.188057" lon="15.091537">
        <ele>1000.537833312</ele>
        <time>2015-12-05T17:29:47Z</time>
      </trkpt>
      <trkpt lat="46.188100" lon="15.091604">
        <ele>1002.9178043712</ele>
        <time>2015-12-05T17:29:57Z</time>
      </trkpt>
      <trkpt lat="46.188148" lon="15.091651">
        <ele>1004.5177849152</ele>
        <time>2015-12-05T17:30:08Z</time>
      </trkpt>
      <trkpt lat="46.188165" lon="15.091691">
        <ele>1006.437761568</ele>
        <time>2015-12-05T17:30:18Z</time>
      </trkpt>
      <trkpt lat="46.188210" lon="15.091752">
        <ele>1007.9077436928</ele>
        <time>2015-12-05T17:30:27Z</time>
      </trkpt>
      <trkpt lat="46.188231" lon="15.091822">
        <ele>1009.1777282496</ele>
        <time>2015-12-05T17:30:35Z</time>
      </trkpt>
      <trkpt lat="46.188234" lon="15.091885">
        <ele>1010.5477115904</ele>
        <time>2015-12-05T17:30:43Z</time>
      </trkpt>
      <trkpt lat="46.188257" lon="15.091963">
        <ele>1011.8576956608</ele>
        <time>2015-12-05T17:30:54Z</time>
      </trkpt>
      <trkpt lat="46.188289" lon="15.092069">
        <ele>1013.9276704896</ele>
        <time>2015-12-05T17:31:05Z</time>
      </trkpt>
      <trkpt lat="46.188318" lon="15.092153">
        <ele>1016.087644224</ele>
        <time>2015-12-05T17:31:16Z</time>
      </trkpt>
      <trkpt lat="46.188349" lon="15.092231">
        <ele>1017.8176231872</ele>
        <time>2015-12-05T17:31:25Z</time>
      </trkpt>
      <trkpt lat="46.188380" lon="15.092306">
        <ele>1019.9175976512</ele>
        <time>2015-12-05T17:31:36Z</time>
      </trkpt>
      <trkpt lat="46.188405" lon="15.092412">
        <ele>1022.4175672512</ele>
        <time>2015-12-05T17:31:47Z</time>
      </trkpt>
      <trkpt lat="46.188423" lon="15.092500">
        <ele>1023.9975480384</ele>
        <time>2015-12-05T17:31:56Z</time>
      </trkpt>
      <trkpt lat="46.188472" lon="15.092575">
        <ele>1025.9675240832</ele>
        <time>2015-12-05T17:32:06Z</time>
      </trkpt>
      <trkpt lat="46.188513" lon="15.092675">
        <ele>1027.7275026816</ele>
        <time>2015-12-05T17:32:15Z</time>
      </trkpt>
      <trkpt lat="46.188532" lon="15.092760">
        <ele>1029.6674790912</ele>
        <time>2015-12-05T17:32:26Z</time>
      </trkpt>
      <trkpt lat="46.188555" lon="15.092851">
        <ele>1031.7474537984</ele>
        <time>2015-12-05T17:32:37Z</time>
      </trkpt>
      <trkpt lat="46.188587" lon="15.092958">
        <ele>1033.4974325184</ele>
        <time>2015-12-05T17:32:49Z</time>
      </trkpt>
      <trkpt lat="46.188614" lon="15.093032">
        <ele>1034.387421696</ele>
        <time>2015-12-05T17:32:54Z</time>
      </trkpt>
      <trkpt lat="46.188647" lon="15.093072">
        <ele>1035.6174067392</ele>
        <time>2015-12-05T17:33:02Z</time>
      </trkpt>
      <trkpt lat="46.188653" lon="15.093090">
        <ele>1035.8274041856</ele>
        <time>2015-12-05T17:33:17Z</time>
      </trkpt>
      <trkpt lat="46.188659" lon="15.093076">
        <ele>1035.9674024832</ele>
        <time>2015-12-05T17:33:33Z</time>
      </trkpt>
      <trkpt lat="46.188656" lon="15.093059">
        <ele>1035.7774047936</ele>
        <time>2015-12-05T17:33:48Z</time>
      </trkpt>
      <trkpt lat="46.188674" lon="15.093027">
        <ele>1035.9574026048</ele>
        <time>2015-12-05T17:34:06Z</time>
      </trkpt>
      <trkpt lat="46.188681" lon="15.092961">
        <ele>1035.937402848</ele>
        <time>2015-12-05T17:34:26Z</time>
      </trkpt>
      <trkpt lat="46.188676" lon="15.092996">
        <ele>1036.137400416</ele>
        <time>2015-12-05T17:34:41Z</time>
      </trkpt>
      <trkpt lat="46.188675" lon="15.093016">
        <ele>1036.2173994432</ele>
        <time>2015-12-05T17:34:57Z</time>
      </trkpt>
      <trkpt lat="46.188659" lon="15.093031">
        <ele>1036.2073995648</ele>
        <time>2015-12-05T17:35:12Z</time>
      </trkpt>
      <trkpt lat="46.188661" lon="15.093079">
        <ele>1036.3173982272</ele>
        <time>2015-12-05T17:35:25Z</time>
      </trkpt>
      <trkpt lat="46.188651" lon="15.093095">
        <ele>1036.3573977408</ele>
        <time>2015-12-05T17:35:39Z</time>
      </trkpt>
      <trkpt lat="46.188657" lon="15.093078">
        <ele>1036.2673988352</ele>
        <time>2015-12-05T17:35:59Z</time>
      </trkpt>
      <trkpt lat="46.188662" lon="15.093070">
        <ele>1036.2073995648</ele>
        <time>2015-12-05T17:36:14Z</time>
      </trkpt>
      <trkpt lat="46.188667" lon="15.093066">
        <ele>1036.287398592</ele>
        <time>2015-12-05T17:36:26Z</time>
      </trkpt>
      <trkpt lat="46.188661" lon="15.093065">
        <ele>1036.1773999296</ele>
        <time>2015-12-05T17:36:41Z</time>
      </trkpt>
      <trkpt lat="46.188659" lon="15.093071">
        <ele>1036.2773987136</ele>
        <time>2015-12-05T17:36:54Z</time>
      </trkpt>
      <trkpt lat="46.188704" lon="15.093132">
        <ele>1036.1674000512</ele>
        <time>2015-12-05T17:37:04Z</time>
      </trkpt>
      <trkpt lat="46.188728" lon="15.093168">
        <ele>1035.9074032128</ele>
        <time>2015-12-05T17:37:07Z</time>
      </trkpt>
      <trkpt lat="46.188805" lon="15.093256">
        <ele>1035.8474039424</ele>
        <time>2015-12-05T17:37:16Z</time>
      </trkpt>
      <trkpt lat="46.188869" lon="15.093324">
        <ele>1036.187399808</ele>
        <time>2015-12-05T17:37:27Z</time>
      </trkpt>
      <trkpt lat="46.188880" lon="15.093337">
        <ele>1036.4173970112</ele>
        <time>2015-12-05T17:37:42Z</time>
      </trkpt>
      <trkpt lat="46.188883" lon="15.093344">
        <ele>1036.6073947008</ele>
        <time>2015-12-05T17:38:02Z</time>
      </trkpt>
      <trkpt lat="46.188875" lon="15.093341">
        <ele>1036.7773926336</ele>
        <time>2015-12-05T17:38:25Z</time>
      </trkpt>
      <trkpt lat="46.188898" lon="15.093334">
        <ele>1036.8273920256</ele>
        <time>2015-12-05T17:38:48Z</time>
      </trkpt>
      <trkpt lat="46.188920" lon="15.093415">
        <ele>1036.6173945792</ele>
        <time>2015-12-05T17:38:56Z</time>
      </trkpt>
      <trkpt lat="46.188962" lon="15.093530">
        <ele>1036.7173933632</ele>
        <time>2015-12-05T17:39:07Z</time>
      </trkpt>
      <trkpt lat="46.188977" lon="15.093623">
        <ele>1036.1474002944</ele>
        <time>2015-12-05T17:39:18Z</time>
      </trkpt>
      <trkpt lat="46.188997" lon="15.093729">
        <ele>1035.1174128192</ele>
        <time>2015-12-05T17:39:26Z</time>
      </trkpt>
      <trkpt lat="46.188992" lon="15.093910">
        <ele>1033.7274297216</ele>
        <time>2015-12-05T17:39:35Z</time>
      </trkpt>
      <trkpt lat="46.189003" lon="15.094061">
        <ele>1033.087437504</ele>
        <time>2015-12-05T17:39:46Z</time>
      </trkpt>
      <trkpt lat="46.189029" lon="15.094166">
        <ele>1031.3074591488</ele>
        <time>2015-12-05T17:39:57Z</time>
      </trkpt>
      <trkpt lat="46.189060" lon="15.094266">
        <ele>1029.7174784832</ele>
        <time>2015-12-05T17:40:08Z</time>
      </trkpt>
      <trkpt lat="46.189096" lon="15.094403">
        <ele>1027.6575035328</ele>
        <time>2015-12-05T17:40:18Z</time>
      </trkpt>
      <trkpt lat="46.189122" lon="15.094555">
        <ele>1024.887537216</ele>
        <time>2015-12-05T17:40:33Z</time>
      </trkpt>
      <trkpt lat="46.189166" lon="15.094691">
        <ele>1022.8475620224</ele>
        <time>2015-12-05T17:40:45Z</time>
      </trkpt>
      <trkpt lat="46.189217" lon="15.094832">
        <ele>1020.6575886528</ele>
        <time>2015-12-05T17:40:56Z</time>
      </trkpt>
      <trkpt lat="46.189257" lon="15.094974">
        <ele>1019.5576020288</ele>
        <time>2015-12-05T17:41:04Z</time>
      </trkpt>
      <trkpt lat="46.189270" lon="15.095024">
        <ele>1019.4776030016</ele>
        <time>2015-12-05T17:41:07Z</time>
      </trkpt>
      <trkpt lat="46.189328" lon="15.095136">
        <ele>1019.9275975296</ele>
        <time>2015-12-05T17:41:16Z</time>
      </trkpt>
      <trkpt lat="46.189347" lon="15.095222">
        <ele>1020.2175940032</ele>
        <time>2015-12-05T17:41:27Z</time>
      </trkpt>
      <trkpt lat="46.189375" lon="15.095325">
        <ele>1021.9275732096</ele>
        <time>2015-12-05T17:41:38Z</time>
      </trkpt>
      <trkpt lat="46.189407" lon="15.095431">
        <ele>1023.8175502272</ele>
        <time>2015-12-05T17:41:49Z</time>
      </trkpt>
      <trkpt lat="46.189438" lon="15.095552">
        <ele>1025.287532352</ele>
        <time>2015-12-05T17:41:58Z</time>
      </trkpt>
      <trkpt lat="46.189463" lon="15.095625">
        <ele>1025.137534176</ele>
        <time>2015-12-05T17:42:05Z</time>
      </trkpt>
      <trkpt lat="46.189472" lon="15.095727">
        <ele>1025.4075308928</ele>
        <time>2015-12-05T17:42:18Z</time>
      </trkpt>
      <trkpt lat="46.189498" lon="15.095814">
        <ele>1024.087546944</ele>
        <time>2015-12-05T17:42:32Z</time>
      </trkpt>
      <trkpt lat="46.189527" lon="15.095879">
        <ele>1021.48757856</ele>
        <time>2015-12-05T17:42:44Z</time>
      </trkpt>
      <trkpt lat="46.189550" lon="15.095970">
        <ele>1018.3176171072</ele>
        <time>2015-12-05T17:42:56Z</time>
      </trkpt>
      <trkpt lat="46.189586" lon="15.096049">
        <ele>1015.1676554112</ele>
        <time>2015-12-05T17:43:07Z</time>
      </trkpt>
      <trkpt lat="46.189599" lon="15.096184">
        <ele>1011.9976939584</ele>
        <time>2015-12-05T17:43:18Z</time>
      </trkpt>
      <trkpt lat="46.189643" lon="15.096328">
        <ele>1011.0177058752</ele>
        <time>2015-12-05T17:43:26Z</time>
      </trkpt>
      <trkpt lat="46.189727" lon="15.096350">
        <ele>1010.6677101312</ele>
        <time>2015-12-05T17:43:34Z</time>
      </trkpt>
      <trkpt lat="46.189787" lon="15.096378">
        <ele>1010.1977158464</ele>
        <time>2015-12-05T17:43:46Z</time>
      </trkpt>
      <trkpt lat="46.189810" lon="15.096379">
        <ele>1009.9277191296</ele>
        <time>2015-12-05T17:44:02Z</time>
      </trkpt>
      <trkpt lat="46.189809" lon="15.096364">
        <ele>1009.9677186432</ele>
        <time>2015-12-05T17:44:21Z</time>
      </trkpt>
      <trkpt lat="46.189833" lon="15.096324">
        <ele>1009.8777197376</ele>
        <time>2015-12-05T17:44:44Z</time>
      </trkpt>
      <trkpt lat="46.189827" lon="15.096285">
        <ele>1009.9177192512</ele>
        <time>2015-12-05T17:45:00Z</time>
      </trkpt>
      <trkpt lat="46.189855" lon="15.096246">
        <ele>1010.1177168192</ele>
        <time>2015-12-05T17:45:17Z</time>
      </trkpt>
      <trkpt lat="46.189848" lon="15.096224">
        <ele>1010.3577139008</ele>
        <time>2015-12-05T17:45:33Z</time>
      </trkpt>
      <trkpt lat="46.189814" lon="15.096190">
        <ele>1010.137716576</ele>
        <time>2015-12-05T17:45:46Z</time>
      </trkpt>
      <trkpt lat="46.189815" lon="15.096337">
        <ele>1010.1177168192</ele>
        <time>2015-12-05T17:45:57Z</time>
      </trkpt>
      <trkpt lat="46.189830" lon="15.096513">
        <ele>1010.6577102528</ele>
        <time>2015-12-05T17:46:07Z</time>
      </trkpt>
      <trkpt lat="46.189833" lon="15.096670">
        <ele>1011.9976939584</ele>
        <time>2015-12-05T17:46:16Z</time>
      </trkpt>
      <trkpt lat="46.189858" lon="15.096824">
        <ele>1013.187679488</ele>
        <time>2015-12-05T17:46:28Z</time>
      </trkpt>
      <trkpt lat="46.189850" lon="15.096854">
        <ele>1013.3176779072</ele>
        <time>2015-12-05T17:46:30Z</time>
      </trkpt>
      <trkpt lat="46.189825" lon="15.096974">
        <ele>1013.8576713408</ele>
        <time>2015-12-05T17:46:40Z</time>
      </trkpt>
      <trkpt lat="46.189845" lon="15.097124">
        <ele>1014.1576676928</ele>
        <time>2015-12-05T17:46:51Z</time>
      </trkpt>
      <trkpt lat="46.189890" lon="15.097296">
        <ele>1014.5576628288</ele>
        <time>2015-12-05T17:46:59Z</time>
      </trkpt>
      <trkpt lat="46.189938" lon="15.097470">
        <ele>1014.5976623424</ele>
        <time>2015-12-05T17:47:10Z</time>
      </trkpt>
      <trkpt lat="46.189949" lon="15.097625">
        <ele>1014.5176633152</ele>
        <time>2015-12-05T17:47:21Z</time>
      </trkpt>
      <trkpt lat="46.189943" lon="15.097756">
        <ele>1014.1576676928</ele>
        <time>2015-12-05T17:47:30Z</time>
      </trkpt>
      <trkpt lat="46.189950" lon="15.097963">
        <ele>1014.3476653824</ele>
        <time>2015-12-05T17:47:41Z</time>
      </trkpt>
      <trkpt lat="46.189966" lon="15.098157">
        <ele>1014.437664288</ele>
        <time>2015-12-05T17:47:51Z</time>
      </trkpt>
      <trkpt lat="46.189970" lon="15.098176">
        <ele>1014.4976635584</ele>
        <time>2015-12-05T17:47:52Z</time>
      </trkpt>
      <trkpt lat="46.190000" lon="15.098336">
        <ele>1014.937658208</ele>
        <time>2015-12-05T17:48:00Z</time>
      </trkpt>
      <trkpt lat="46.190003" lon="15.098515">
        <ele>1015.787647872</ele>
        <time>2015-12-05T17:48:12Z</time>
      </trkpt>
      <trkpt lat="46.190010" lon="15.098559">
        <ele>1015.8676468992</ele>
        <time>2015-12-05T17:48:14Z</time>
      </trkpt>
      <trkpt lat="46.190000" lon="15.098789">
        <ele>1016.5476386304</ele>
        <time>2015-12-05T17:48:26Z</time>
      </trkpt>
      <trkpt lat="46.189975" lon="15.098874">
        <ele>1017.0076330368</ele>
        <time>2015-12-05T17:48:32Z</time>
      </trkpt>
      <trkpt lat="46.189928" lon="15.099020">
        <ele>1017.337629024</ele>
        <time>2015-12-05T17:48:43Z</time>
      </trkpt>
      <trkpt lat="46.189900" lon="15.099163">
        <ele>1017.287629632</ele>
        <time>2015-12-05T17:48:51Z</time>
      </trkpt>
      <trkpt lat="46.189874" lon="15.099281">
        <ele>1017.437627808</ele>
        <time>2015-12-05T17:48:58Z</time>
      </trkpt>
      <trkpt lat="46.189853" lon="15.099416">
        <ele>1017.5776261056</ele>
        <time>2015-12-05T17:49:06Z</time>
      </trkpt>
      <trkpt lat="46.189836" lon="15.099494">
        <ele>1017.6176256192</ele>
        <time>2015-12-05T17:49:12Z</time>
      </trkpt>
      <trkpt lat="46.189772" lon="15.099649">
        <ele>1017.7776236736</ele>
        <time>2015-12-05T17:49:20Z</time>
      </trkpt>
      <trkpt lat="46.189766" lon="15.099663">
        <ele>1017.8076233088</ele>
        <time>2015-12-05T17:49:21Z</time>
      </trkpt>
      <trkpt lat="46.189715" lon="15.099850">
        <ele>1017.637625376</ele>
        <time>2015-12-05T17:49:29Z</time>
      </trkpt>
      <trkpt lat="46.189694" lon="15.099959">
        <ele>1017.6476252544</ele>
        <time>2015-12-05T17:49:36Z</time>
      </trkpt>
      <trkpt lat="46.189694" lon="15.100195">
        <ele>1017.7176244032</ele>
        <time>2015-12-05T17:49:47Z</time>
      </trkpt>
      <trkpt lat="46.189687" lon="15.100326">
        <ele>1017.9176219712</ele>
        <time>2015-12-05T17:49:53Z</time>
      </trkpt>
      <trkpt lat="46.189658" lon="15.100509">
        <ele>1017.98762112</ele>
        <time>2015-12-05T17:50:02Z</time>
      </trkpt>
      <trkpt lat="46.189647" lon="15.100556">
        <ele>1018.0776200256</ele>
        <time>2015-12-05T17:50:06Z</time>
      </trkpt>
      <trkpt lat="46.189625" lon="15.100775">
        <ele>1017.9676213632</ele>
        <time>2015-12-05T17:50:15Z</time>
      </trkpt>
      <trkpt lat="46.189581" lon="15.100992">
        <ele>1017.6276254976</ele>
        <time>2015-12-05T17:50:23Z</time>
      </trkpt>
      <trkpt lat="46.189548" lon="15.101145">
        <ele>1017.4276279296</ele>
        <time>2015-12-05T17:50:31Z</time>
      </trkpt>
      <trkpt lat="46.189487" lon="15.101345">
        <ele>1017.3976282944</ele>
        <time>2015-12-05T17:50:41Z</time>
      </trkpt>
      <trkpt lat="46.189461" lon="15.101427">
        <ele>1017.3276291456</ele>
        <time>2015-12-05T17:50:46Z</time>
      </trkpt>
      <trkpt lat="46.189458" lon="15.101462">
        <ele>1017.2976295104</ele>
        <time>2015-12-05T17:50:47Z</time>
      </trkpt>
      <trkpt lat="46.189446" lon="15.101604">
        <ele>1017.4976270784</ele>
        <time>2015-12-05T17:50:57Z</time>
      </trkpt>
      <trkpt lat="46.189434" lon="15.101702">
        <ele>1017.6476252544</ele>
        <time>2015-12-05T17:51:04Z</time>
      </trkpt>
      <trkpt lat="46.189406" lon="15.101833">
        <ele>1017.7476240384</ele>
        <time>2015-12-05T17:51:12Z</time>
      </trkpt>
      <trkpt lat="46.189415" lon="15.102017">
        <ele>1017.8676225792</ele>
        <time>2015-12-05T17:51:21Z</time>
      </trkpt>
      <trkpt lat="46.189431" lon="15.102142">
        <ele>1017.887622336</ele>
        <time>2015-12-05T17:51:29Z</time>
      </trkpt>
      <trkpt lat="46.189431" lon="15.102270">
        <ele>1017.8776224576</ele>
        <time>2015-12-05T17:51:36Z</time>
      </trkpt>
      <trkpt lat="46.189417" lon="15.102352">
        <ele>1017.8076233088</ele>
        <time>2015-12-05T17:51:40Z</time>
      </trkpt>
      <trkpt lat="46.189386" lon="15.102461">
        <ele>1017.6976246464</ele>
        <time>2015-12-05T17:51:45Z</time>
      </trkpt>
      <trkpt lat="46.189356" lon="15.102548">
        <ele>1017.3176292672</ele>
        <time>2015-12-05T17:51:50Z</time>
      </trkpt>
      <trkpt lat="46.189268" lon="15.102686">
        <ele>1016.2376424</ele>
        <time>2015-12-05T17:51:59Z</time>
      </trkpt>
      <trkpt lat="46.189168" lon="15.102885">
        <ele>1015.2976538304</ele>
        <time>2015-12-05T17:52:10Z</time>
      </trkpt>
      <trkpt lat="46.189100" lon="15.103013">
        <ele>1014.437664288</ele>
        <time>2015-12-05T17:52:17Z</time>
      </trkpt>
      <trkpt lat="46.189041" lon="15.103091">
        <ele>1013.4076768128</ele>
        <time>2015-12-05T17:52:25Z</time>
      </trkpt>
      <trkpt lat="46.188980" lon="15.103231">
        <ele>1011.887695296</ele>
        <time>2015-12-05T17:52:35Z</time>
      </trkpt>
      <trkpt lat="46.188944" lon="15.103406">
        <ele>1011.3577017408</ele>
        <time>2015-12-05T17:52:44Z</time>
      </trkpt>
      <trkpt lat="46.188924" lon="15.103449">
        <ele>1011.3677016192</ele>
        <time>2015-12-05T17:52:46Z</time>
      </trkpt>
      <trkpt lat="46.188902" lon="15.103545">
        <ele>1011.387701376</ele>
        <time>2015-12-05T17:52:49Z</time>
      </trkpt>
      <trkpt lat="46.188852" lon="15.103637">
        <ele>1011.5176997952</ele>
        <time>2015-12-05T17:52:57Z</time>
      </trkpt>
      <trkpt lat="46.188818" lon="15.103820">
        <ele>1012.2476909184</ele>
        <time>2015-12-05T17:53:08Z</time>
      </trkpt>
      <trkpt lat="46.188790" lon="15.103961">
        <ele>1013.337677664</ele>
        <time>2015-12-05T17:53:16Z</time>
      </trkpt>
      <trkpt lat="46.188786" lon="15.103994">
        <ele>1013.637674016</ele>
        <time>2015-12-05T17:53:17Z</time>
      </trkpt>
      <trkpt lat="46.188739" lon="15.104137">
        <ele>1014.6176620992</ele>
        <time>2015-12-05T17:53:27Z</time>
      </trkpt>
      <trkpt lat="46.188717" lon="15.104190">
        <ele>1014.9676578432</ele>
        <time>2015-12-05T17:53:29Z</time>
      </trkpt>
      <trkpt lat="46.188660" lon="15.104333">
        <ele>1016.337641184</ele>
        <time>2015-12-05T17:53:40Z</time>
      </trkpt>
      <trkpt lat="46.188613" lon="15.104426">
        <ele>1017.2476301184</ele>
        <time>2015-12-05T17:53:47Z</time>
      </trkpt>
      <trkpt lat="46.188554" lon="15.104578">
        <ele>1018.8476106624</ele>
        <time>2015-12-05T17:53:59Z</time>
      </trkpt>
      <trkpt lat="46.188524" lon="15.104617">
        <ele>1019.9575971648</ele>
        <time>2015-12-05T17:54:10Z</time>
      </trkpt>
      <trkpt lat="46.188503" lon="15.104619">
        <ele>1020.1975942464</ele>
        <time>2015-12-05T17:54:22Z</time>
      </trkpt>
      <trkpt lat="46.188472" lon="15.104649">
        <ele>1020.337592544</ele>
        <time>2015-12-05T17:54:41Z</time>
      </trkpt>
      <trkpt lat="46.188463" lon="15.104677">
        <ele>1020.5575898688</ele>
        <time>2015-12-05T17:54:57Z</time>
      </trkpt>
      <trkpt lat="46.188482" lon="15.104729">
        <ele>1020.537590112</ele>
        <time>2015-12-05T17:55:12Z</time>
      </trkpt>
      <trkpt lat="46.188504" lon="15.104783">
        <ele>1020.4475912064</ele>
        <time>2015-12-05T17:55:28Z</time>
      </trkpt>
      <trkpt lat="46.188476" lon="15.104801">
        <ele>1020.587589504</ele>
        <time>2015-12-05T17:55:44Z</time>
      </trkpt>
      <trkpt lat="46.188458" lon="15.104831">
        <ele>1020.5475899904</ele>
        <time>2015-12-05T17:55:58Z</time>
      </trkpt>
      <trkpt lat="46.188449" lon="15.104825">
        <ele>1020.1975942464</ele>
        <time>2015-12-05T17:56:10Z</time>
      </trkpt>
      <trkpt lat="46.188400" lon="15.104931">
        <ele>1020.7975869504</ele>
        <time>2015-12-05T17:56:21Z</time>
      </trkpt>
      <trkpt lat="46.188360" lon="15.105009">
        <ele>1022.8175623872</ele>
        <time>2015-12-05T17:56:33Z</time>
      </trkpt>
      <trkpt lat="46.188340" lon="15.105092">
        <ele>1025.2075333248</ele>
        <time>2015-12-05T17:56:45Z</time>
      </trkpt>
      <trkpt lat="46.188323" lon="15.105167">
        <ele>1027.6775032896</ele>
        <time>2015-12-05T17:56:57Z</time>
      </trkpt>
      <trkpt lat="46.188320" lon="15.105250">
        <ele>1029.787477632</ele>
        <time>2015-12-05T17:57:08Z</time>
      </trkpt>
      <trkpt lat="46.188287" lon="15.105339">
        <ele>1031.9574512448</ele>
        <time>2015-12-05T17:57:19Z</time>
      </trkpt>
      <trkpt lat="46.188254" lon="15.105399">
        <ele>1034.937415008</ele>
        <time>2015-12-05T17:57:32Z</time>
      </trkpt>
      <trkpt lat="46.188230" lon="15.105449">
        <ele>1036.8773914176</ele>
        <time>2015-12-05T17:57:43Z</time>
      </trkpt>
      <trkpt lat="46.188195" lon="15.105501">
        <ele>1039.137363936</ele>
        <time>2015-12-05T17:57:54Z</time>
      </trkpt>
      <trkpt lat="46.188187" lon="15.105571">
        <ele>1042.1073278208</ele>
        <time>2015-12-05T17:58:06Z</time>
      </trkpt>
      <trkpt lat="46.188164" lon="15.105613">
        <ele>1044.2973011904</ele>
        <time>2015-12-05T17:58:17Z</time>
      </trkpt>
      <trkpt lat="46.188144" lon="15.105671">
        <ele>1045.9972805184</ele>
        <time>2015-12-05T17:58:26Z</time>
      </trkpt>
      <trkpt lat="46.188112" lon="15.105734">
        <ele>1047.98725632</ele>
        <time>2015-12-05T17:58:37Z</time>
      </trkpt>
      <trkpt lat="46.188104" lon="15.105752">
        <ele>1049.4772382016</ele>
        <time>2015-12-05T17:58:48Z</time>
      </trkpt>
      <trkpt lat="46.188082" lon="15.105801">
        <ele>1051.687211328</ele>
        <time>2015-12-05T17:59:00Z</time>
      </trkpt>
      <trkpt lat="46.188051" lon="15.105854">
        <ele>1054.137181536</ele>
        <time>2015-12-05T17:59:12Z</time>
      </trkpt>
      <trkpt lat="46.188016" lon="15.105869">
        <ele>1056.4171538112</ele>
        <time>2015-12-05T17:59:22Z</time>
      </trkpt>
      <trkpt lat="46.187954" lon="15.105890">
        <ele>1058.4571290048</ele>
        <time>2015-12-05T17:59:33Z</time>
      </trkpt>
      <trkpt lat="46.187899" lon="15.105914">
        <ele>1060.3771056576</ele>
        <time>2015-12-05T17:59:42Z</time>
      </trkpt>
      <trkpt lat="46.187830" lon="15.105948">
        <ele>1062.4070809728</ele>
        <time>2015-12-05T17:59:54Z</time>
      </trkpt>
      <trkpt lat="46.187792" lon="15.105980">
        <ele>1064.0770606656</ele>
        <time>2015-12-05T18:00:05Z</time>
      </trkpt>
      <trkpt lat="46.187706" lon="15.106008">
        <ele>1066.3470330624</ele>
        <time>2015-12-05T18:00:20Z</time>
      </trkpt>
      <trkpt lat="46.187635" lon="15.106032">
        <ele>1068.3270089856</ele>
        <time>2015-12-05T18:00:32Z</time>
      </trkpt>
      <trkpt lat="46.187584" lon="15.106060">
        <ele>1070.636980896</ele>
        <time>2015-12-05T18:00:41Z</time>
      </trkpt>
      <trkpt lat="46.187536" lon="15.106092">
        <ele>1072.6769560896</ele>
        <time>2015-12-05T18:00:52Z</time>
      </trkpt>
      <trkpt lat="46.187478" lon="15.106132">
        <ele>1075.0769269056</ele>
        <time>2015-12-05T18:01:06Z</time>
      </trkpt>
      <trkpt lat="46.187398" lon="15.106178">
        <ele>1077.3068997888</ele>
        <time>2015-12-05T18:01:17Z</time>
      </trkpt>
      <trkpt lat="46.187316" lon="15.106215">
        <ele>1078.7168826432</ele>
        <time>2015-12-05T18:01:25Z</time>
      </trkpt>
      <trkpt lat="46.187249" lon="15.106239">
        <ele>1080.1268654976</ele>
        <time>2015-12-05T18:01:34Z</time>
      </trkpt>
      <trkpt lat="46.187167" lon="15.106297">
        <ele>1081.9068438528</ele>
        <time>2015-12-05T18:01:48Z</time>
      </trkpt>
      <trkpt lat="46.187084" lon="15.106309">
        <ele>1083.9468190464</ele>
        <time>2015-12-05T18:01:58Z</time>
      </trkpt>
      <trkpt lat="46.186991" lon="15.106314">
        <ele>1085.386801536</ele>
        <time>2015-12-05T18:02:09Z</time>
      </trkpt>
      <trkpt lat="46.186934" lon="15.106277">
        <ele>1086.6067867008</ele>
        <time>2015-12-05T18:02:19Z</time>
      </trkpt>
      <trkpt lat="46.186853" lon="15.106245">
        <ele>1087.7467728384</ele>
        <time>2015-12-05T18:02:28Z</time>
      </trkpt>
      <trkpt lat="46.186803" lon="15.106295">
        <ele>1088.9767578816</ele>
        <time>2015-12-05T18:02:38Z</time>
      </trkpt>
      <trkpt lat="46.186766" lon="15.106402">
        <ele>1090.7567362368</ele>
        <time>2015-12-05T18:02:48Z</time>
      </trkpt>
      <trkpt lat="46.186789" lon="15.106547">
        <ele>1092.6067137408</ele>
        <time>2015-12-05T18:02:59Z</time>
      </trkpt>
      <trkpt lat="46.186770" lon="15.106693">
        <ele>1093.9266976896</ele>
        <time>2015-12-05T18:03:07Z</time>
      </trkpt>
      <trkpt lat="46.186728" lon="15.106794">
        <ele>1094.7266879616</ele>
        <time>2015-12-05T18:03:14Z</time>
      </trkpt>
      <trkpt lat="46.186750" lon="15.106882">
        <ele>1095.5966773824</ele>
        <time>2015-12-05T18:03:23Z</time>
      </trkpt>
      <trkpt lat="46.186799" lon="15.106965">
        <ele>1097.0666595072</ele>
        <time>2015-12-05T18:03:34Z</time>
      </trkpt>
      <trkpt lat="46.186854" lon="15.107001">
        <ele>1098.8966372544</ele>
        <time>2015-12-05T18:03:48Z</time>
      </trkpt>
      <trkpt lat="46.186889" lon="15.107009">
        <ele>1100.9266125696</ele>
        <time>2015-12-05T18:03:59Z</time>
      </trkpt>
      <trkpt lat="46.186927" lon="15.107007">
        <ele>1102.7065909248</ele>
        <time>2015-12-05T18:04:09Z</time>
      </trkpt>
      <trkpt lat="46.186955" lon="15.107038">
        <ele>1105.0965618624</ele>
        <time>2015-12-05T18:04:21Z</time>
      </trkpt>
      <trkpt lat="46.186984" lon="15.107090">
        <ele>1107.636530976</ele>
        <time>2015-12-05T18:04:34Z</time>
      </trkpt>
      <trkpt lat="46.187041" lon="15.107138">
        <ele>1110.586495104</ele>
        <time>2015-12-05T18:04:46Z</time>
      </trkpt>
      <trkpt lat="46.187082" lon="15.107162">
        <ele>1112.5464712704</ele>
        <time>2015-12-05T18:04:55Z</time>
      </trkpt>
      <trkpt lat="46.187115" lon="15.107163">
        <ele>1114.5064474368</ele>
        <time>2015-12-05T18:05:05Z</time>
      </trkpt>
      <trkpt lat="46.187167" lon="15.107200">
        <ele>1116.8264192256</ele>
        <time>2015-12-05T18:05:17Z</time>
      </trkpt>
      <trkpt lat="46.187215" lon="15.107219">
        <ele>1118.6063975808</ele>
        <time>2015-12-05T18:05:25Z</time>
      </trkpt>
      <trkpt lat="46.187241" lon="15.107193">
        <ele>1120.9263693696</ele>
        <time>2015-12-05T18:05:34Z</time>
      </trkpt>
      <trkpt lat="46.187281" lon="15.107231">
        <ele>1122.3663518592</ele>
        <time>2015-12-05T18:05:41Z</time>
      </trkpt>
      <trkpt lat="46.187334" lon="15.107287">
        <ele>1124.0463314304</ele>
        <time>2015-12-05T18:05:51Z</time>
      </trkpt>
      <trkpt lat="46.187380" lon="15.107335">
        <ele>1126.1663056512</ele>
        <time>2015-12-05T18:06:01Z</time>
      </trkpt>
      <trkpt lat="46.187446" lon="15.107368">
        <ele>1127.7762860736</ele>
        <time>2015-12-05T18:06:12Z</time>
      </trkpt>
      <trkpt lat="46.187505" lon="15.107387">
        <ele>1129.7462621184</ele>
        <time>2015-12-05T18:06:23Z</time>
      </trkpt>
      <trkpt lat="46.187513" lon="15.107390">
        <ele>1130.8562486208</ele>
        <time>2015-12-05T18:06:35Z</time>
      </trkpt>
      <trkpt lat="46.187510" lon="15.107388">
        <ele>1130.8762483776</ele>
        <time>2015-12-05T18:06:49Z</time>
      </trkpt>
      <trkpt lat="46.187517" lon="15.107394">
        <ele>1130.7062504448</ele>
        <time>2015-12-05T18:06:58Z</time>
      </trkpt>
      <trkpt lat="46.187529" lon="15.107393">
        <ele>1130.2762556736</ele>
        <time>2015-12-05T18:07:05Z</time>
      </trkpt>
      <trkpt lat="46.187525" lon="15.107409">
        <ele>1129.936259808</ele>
        <time>2015-12-05T18:07:13Z</time>
      </trkpt>
      <trkpt lat="46.187525" lon="15.107401">
        <ele>1129.6062638208</ele>
        <time>2015-12-05T18:07:25Z</time>
      </trkpt>
      <trkpt lat="46.187521" lon="15.107399">
        <ele>1129.6462633344</ele>
        <time>2015-12-05T18:07:37Z</time>
      </trkpt>
      <trkpt lat="46.187526" lon="15.107408">
        <ele>1129.7062626048</ele>
        <time>2015-12-05T18:07:49Z</time>
      </trkpt>
      <trkpt lat="46.187529" lon="15.107412">
        <ele>1129.4762654016</ele>
        <time>2015-12-05T18:08:06Z</time>
      </trkpt>
      <trkpt lat="46.187524" lon="15.107402">
        <ele>1129.3762666176</ele>
        <time>2015-12-05T18:08:16Z</time>
      </trkpt>
      <trkpt lat="46.187525" lon="15.107393">
        <ele>1129.586264064</ele>
        <time>2015-12-05T18:08:27Z</time>
      </trkpt>
      <trkpt lat="46.187534" lon="15.107387">
        <ele>1129.636263456</ele>
        <time>2015-12-05T18:08:39Z</time>
      </trkpt>
      <trkpt lat="46.187531" lon="15.107387">
        <ele>1129.7462621184</ele>
        <time>2015-12-05T18:08:51Z</time>
      </trkpt>
      <trkpt lat="46.187530" lon="15.107383">
        <ele>1129.636263456</ele>
        <time>2015-12-05T18:09:02Z</time>
      </trkpt>
      <trkpt lat="46.187526" lon="15.107392">
        <ele>1129.686262848</ele>
        <time>2015-12-05T18:09:16Z</time>
      </trkpt>
      <trkpt lat="46.187522" lon="15.107394">
        <ele>1130.036258592</ele>
        <time>2015-12-05T18:09:29Z</time>
      </trkpt>
      <trkpt lat="46.187521" lon="15.107397">
        <ele>1129.9562595648</ele>
        <time>2015-12-05T18:09:44Z</time>
      </trkpt>
      <trkpt lat="46.187512" lon="15.107408">
        <ele>1130.0462584704</ele>
        <time>2015-12-05T18:09:59Z</time>
      </trkpt>
      <trkpt lat="46.187502" lon="15.107395">
        <ele>1130.0662582272</ele>
        <time>2015-12-05T18:10:12Z</time>
      </trkpt>
      <trkpt lat="46.187498" lon="15.107391">
        <ele>1130.3062553088</ele>
        <time>2015-12-05T18:10:22Z</time>
      </trkpt>
      <trkpt lat="46.187495" lon="15.107381">
        <ele>1130.386254336</ele>
        <time>2015-12-05T18:10:30Z</time>
      </trkpt>
      <trkpt lat="46.187498" lon="15.107395">
        <ele>1130.1662570112</ele>
        <time>2015-12-05T18:10:44Z</time>
      </trkpt>
      <trkpt lat="46.187496" lon="15.107393">
        <ele>1130.136257376</ele>
        <time>2015-12-05T18:10:53Z</time>
      </trkpt>
      <trkpt lat="46.187496" lon="15.107390">
        <ele>1130.3162551872</ele>
        <time>2015-12-05T18:11:05Z</time>
      </trkpt>
      <trkpt lat="46.187497" lon="15.107386">
        <ele>1131.136245216</ele>
        <time>2015-12-05T18:11:15Z</time>
      </trkpt>
      <trkpt lat="46.187501" lon="15.107412">
        <ele>1131.136245216</ele>
        <time>2015-12-05T18:11:20Z</time>
      </trkpt>
      <trkpt lat="46.187494" lon="15.107394">
        <ele>1131.236244</ele>
        <time>2015-12-05T18:11:32Z</time>
      </trkpt>
      <trkpt lat="46.187491" lon="15.107414">
        <ele>1131.3962420544</ele>
        <time>2015-12-05T18:11:47Z</time>
      </trkpt>
      <trkpt lat="46.187481" lon="15.107425">
        <ele>1131.3762422976</ele>
        <time>2015-12-05T18:11:56Z</time>
      </trkpt>
      <trkpt lat="46.187511" lon="15.107381">
        <ele>1131.2562437568</ele>
        <time>2015-12-05T18:12:06Z</time>
      </trkpt>
      <trkpt lat="46.187507" lon="15.107376">
        <ele>1131.3462426624</ele>
        <time>2015-12-05T18:12:14Z</time>
      </trkpt>
      <trkpt lat="46.187525" lon="15.107349">
        <ele>1131.5762398656</ele>
        <time>2015-12-05T18:12:22Z</time>
      </trkpt>
      <trkpt lat="46.187524" lon="15.107366">
        <ele>1131.4262416896</ele>
        <time>2015-12-05T18:12:32Z</time>
      </trkpt>
      <trkpt lat="46.187515" lon="15.107353">
        <ele>1131.7062382848</ele>
        <time>2015-12-05T18:12:41Z</time>
      </trkpt>
      <trkpt lat="46.187509" lon="15.107348">
        <ele>1131.9262356096</ele>
        <time>2015-12-05T18:12:52Z</time>
      </trkpt>
      <trkpt lat="46.187498" lon="15.107354">
        <ele>1131.936235488</ele>
        <time>2015-12-05T18:13:01Z</time>
      </trkpt>
      <trkpt lat="46.187475" lon="15.107328">
        <ele>1131.7462377984</ele>
        <time>2015-12-05T18:13:08Z</time>
      </trkpt>
      <trkpt lat="46.187445" lon="15.107300">
        <ele>1131.6962384064</ele>
        <time>2015-12-05T18:13:24Z</time>
      </trkpt>
      <trkpt lat="46.187431" lon="15.107287">
        <ele>1131.7562376768</ele>
        <time>2015-12-05T18:13:35Z</time>
      </trkpt>
      <trkpt lat="46.187441" lon="15.107304">
        <ele>1132.1562328128</ele>
        <time>2015-12-05T18:13:44Z</time>
      </trkpt>
      <trkpt lat="46.187448" lon="15.107317">
        <ele>1131.9462353664</ele>
        <time>2015-12-05T18:13:54Z</time>
      </trkpt>
      <trkpt lat="46.187435" lon="15.107294">
        <ele>1131.5462402304</ele>
        <time>2015-12-05T18:14:05Z</time>
      </trkpt>
      <trkpt lat="46.187431" lon="15.107291">
        <ele>1131.7662375552</ele>
        <time>2015-12-05T18:14:20Z</time>
      </trkpt>
      <trkpt lat="46.187421" lon="15.107290">
        <ele>1131.8062370688</ele>
        <time>2015-12-05T18:14:36Z</time>
      </trkpt>
      <trkpt lat="46.187421" lon="15.107283">
        <ele>1131.836236704</ele>
        <time>2015-12-05T18:14:49Z</time>
      </trkpt>
      <trkpt lat="46.187415" lon="15.107269">
        <ele>1132.2762313536</ele>
        <time>2015-12-05T18:15:04Z</time>
      </trkpt>
      <trkpt lat="46.187413" lon="15.107281">
        <ele>1132.2662314752</ele>
        <time>2015-12-05T18:15:19Z</time>
      </trkpt>
      <trkpt lat="46.187407" lon="15.107277">
        <ele>1132.2762313536</ele>
        <time>2015-12-05T18:15:31Z</time>
      </trkpt>
      <trkpt lat="46.187410" lon="15.107297">
        <ele>1132.2762313536</ele>
        <time>2015-12-05T18:15:42Z</time>
      </trkpt>
      <trkpt lat="46.187436" lon="15.107316">
        <ele>1132.9162235712</ele>
        <time>2015-12-05T18:15:51Z</time>
      </trkpt>
      <trkpt lat="46.187450" lon="15.107333">
        <ele>1133.036222112</ele>
        <time>2015-12-05T18:16:02Z</time>
      </trkpt>
      <trkpt lat="46.187455" lon="15.107360">
        <ele>1132.9062236928</ele>
        <time>2015-12-05T18:16:12Z</time>
      </trkpt>
      <trkpt lat="46.187461" lon="15.107368">
        <ele>1133.1762204096</ele>
        <time>2015-12-05T18:16:20Z</time>
      </trkpt>
      <trkpt lat="46.187467" lon="15.107361">
        <ele>1133.3662180992</ele>
        <time>2015-12-05T18:16:28Z</time>
      </trkpt>
      <trkpt lat="46.187467" lon="15.107365">
        <ele>1132.98622272</ele>
        <time>2015-12-05T18:16:36Z</time>
      </trkpt>
      <trkpt lat="46.187467" lon="15.107372">
        <ele>1132.7762252736</ele>
        <time>2015-12-05T18:16:44Z</time>
      </trkpt>
      <trkpt lat="46.187489" lon="15.107407">
        <ele>1132.98622272</ele>
        <time>2015-12-05T18:16:52Z</time>
      </trkpt>
      <trkpt lat="46.187533" lon="15.107440">
        <ele>1132.4162296512</ele>
        <time>2015-12-05T18:17:00Z</time>
      </trkpt>
      <trkpt lat="46.187564" lon="15.107509">
        <ele>1131.0162466752</ele>
        <time>2015-12-05T18:17:08Z</time>
      </trkpt>
      <trkpt lat="46.187627" lon="15.107575">
        <ele>1129.4062662528</ele>
        <time>2015-12-05T18:17:16Z</time>
      </trkpt>
      <trkpt lat="46.187642" lon="15.107605">
        <ele>1128.286279872</ele>
        <time>2015-12-05T18:17:24Z</time>
      </trkpt>
      <trkpt lat="46.187666" lon="15.107625">
        <ele>1127.3062917888</ele>
        <time>2015-12-05T18:17:31Z</time>
      </trkpt>
      <trkpt lat="46.187681" lon="15.107651">
        <ele>1126.836297504</ele>
        <time>2015-12-05T18:17:39Z</time>
      </trkpt>
      <trkpt lat="46.187700" lon="15.107697">
        <ele>1125.8963089344</ele>
        <time>2015-12-05T18:17:51Z</time>
      </trkpt>
      <trkpt lat="46.187711" lon="15.107711">
        <ele>1124.5563252288</ele>
        <time>2015-12-05T18:18:01Z</time>
      </trkpt>
      <trkpt lat="46.187735" lon="15.107742">
        <ele>1123.2763407936</ele>
        <time>2015-12-05T18:18:09Z</time>
      </trkpt>
      <trkpt lat="46.187760" lon="15.107778">
        <ele>1121.8463581824</ele>
        <time>2015-12-05T18:18:20Z</time>
      </trkpt>
      <trkpt lat="46.187793" lon="15.107802">
        <ele>1120.0563799488</ele>
        <time>2015-12-05T18:18:28Z</time>
      </trkpt>
      <trkpt lat="46.187831" lon="15.107861">
        <ele>1117.8664065792</ele>
        <time>2015-12-05T18:18:40Z</time>
      </trkpt>
      <trkpt lat="46.187836" lon="15.107893">
        <ele>1116.2264265216</ele>
        <time>2015-12-05T18:18:48Z</time>
      </trkpt>
      <trkpt lat="46.187871" lon="15.107951">
        <ele>1114.23645072</ele>
        <time>2015-12-05T18:18:58Z</time>
      </trkpt>
      <trkpt lat="46.187889" lon="15.108012">
        <ele>1112.4564723648</ele>
        <time>2015-12-05T18:19:07Z</time>
      </trkpt>
      <trkpt lat="46.187907" lon="15.108027">
        <ele>1111.6264824576</ele>
        <time>2015-12-05T18:19:15Z</time>
      </trkpt>
      <trkpt lat="46.187945" lon="15.108066">
        <ele>1110.6564942528</ele>
        <time>2015-12-05T18:19:23Z</time>
      </trkpt>
      <trkpt lat="46.187930" lon="15.108070">
        <ele>1108.9165154112</ele>
        <time>2015-12-05T18:19:34Z</time>
      </trkpt>
      <trkpt lat="46.187965" lon="15.108083">
        <ele>1107.3265347456</ele>
        <time>2015-12-05T18:19:42Z</time>
      </trkpt>
      <trkpt lat="46.188017" lon="15.108154">
        <ele>1104.7565659968</ele>
        <time>2015-12-05T18:19:53Z</time>
      </trkpt>
      <trkpt lat="46.188062" lon="15.108245">
        <ele>1102.4765937216</ele>
        <time>2015-12-05T18:20:05Z</time>
      </trkpt>
      <trkpt lat="46.188058" lon="15.108275">
        <ele>1101.2066091648</ele>
        <time>2015-12-05T18:20:16Z</time>
      </trkpt>
      <trkpt lat="46.188057" lon="15.108264">
        <ele>1100.8266137856</ele>
        <time>2015-12-05T18:20:24Z</time>
      </trkpt>
      <trkpt lat="46.188039" lon="15.108254">
        <ele>1100.8966129344</ele>
        <time>2015-12-05T18:20:33Z</time>
      </trkpt>
      <trkpt lat="46.188051" lon="15.108262">
        <ele>1101.0766107456</ele>
        <time>2015-12-05T18:20:42Z</time>
      </trkpt>
      <trkpt lat="46.188060" lon="15.108303">
        <ele>1101.2766083136</ele>
        <time>2015-12-05T18:20:54Z</time>
      </trkpt>
      <trkpt lat="46.188099" lon="15.108361">
        <ele>1100.2766204736</ele>
        <time>2015-12-05T18:21:02Z</time>
      </trkpt>
      <trkpt lat="46.188141" lon="15.108451">
        <ele>1099.4966299584</ele>
        <time>2015-12-05T18:21:09Z</time>
      </trkpt>
      <trkpt lat="46.188172" lon="15.108519">
        <ele>1099.4066310528</ele>
        <time>2015-12-05T18:21:17Z</time>
      </trkpt>
      <trkpt lat="46.188177" lon="15.108539">
        <ele>1099.23663312</ele>
        <time>2015-12-05T18:21:21Z</time>
      </trkpt>
      <trkpt lat="46.188220" lon="15.108604">
        <ele>1099.1566340928</ele>
        <time>2015-12-05T18:21:27Z</time>
      </trkpt>
      <trkpt lat="46.188240" lon="15.108646">
        <ele>1099.8666254592</ele>
        <time>2015-12-05T18:21:37Z</time>
      </trkpt>
      <trkpt lat="46.188268" lon="15.108684">
        <ele>1100.4766180416</ele>
        <time>2015-12-05T18:21:45Z</time>
      </trkpt>
      <trkpt lat="46.188317" lon="15.108726">
        <ele>1100.9766119616</ele>
        <time>2015-12-05T18:21:54Z</time>
      </trkpt>
      <trkpt lat="46.188328" lon="15.108793">
        <ele>1102.5565927488</ele>
        <time>2015-12-05T18:22:05Z</time>
      </trkpt>
      <trkpt lat="46.188319" lon="15.108789">
        <ele>1103.3965825344</ele>
        <time>2015-12-05T18:22:15Z</time>
      </trkpt>
      <trkpt lat="46.188304" lon="15.108824">
        <ele>1104.0465746304</ele>
        <time>2015-12-05T18:22:26Z</time>
      </trkpt>
      <trkpt lat="46.188295" lon="15.108858">
        <ele>1104.086574144</ele>
        <time>2015-12-05T18:22:36Z</time>
      </trkpt>
      <trkpt lat="46.188298" lon="15.108865">
        <ele>1104.0965740224</ele>
        <time>2015-12-05T18:22:38Z</time>
      </trkpt>
      <trkpt lat="46.188286" lon="15.108889">
        <ele>1104.0465746304</ele>
        <time>2015-12-05T18:22:51Z</time>
      </trkpt>
      <trkpt lat="46.188325" lon="15.108935">
        <ele>1103.7265785216</ele>
        <time>2015-12-05T18:22:58Z</time>
      </trkpt>
      <trkpt lat="46.188410" lon="15.109008">
        <ele>1103.1265858176</ele>
        <time>2015-12-05T18:23:47Z</time>
      </trkpt>
      <trkpt lat="46.188416" lon="15.109185">
        <ele>1103.5265809536</ele>
        <time>2015-12-05T18:23:55Z</time>
      </trkpt>
      <trkpt lat="46.188353" lon="15.108996">
        <ele>1103.3965825344</ele>
        <time>2015-12-05T18:24:05Z</time>
      </trkpt>
      <trkpt lat="46.188008" lon="15.108766">
        <ele>1102.936588128</ele>
        <time>2015-12-05T18:24:42Z</time>
      </trkpt>
      <trkpt lat="46.188199" lon="15.108676">
        <ele>1099.7466269184</ele>
        <time>2015-12-05T22:14:31Z</time>
      </trkpt>
      <trkpt lat="46.188203" lon="15.108693">
        <ele>1099.73662704</ele>
        <time>2015-12-05T22:14:32Z</time>
      </trkpt>
      <trkpt lat="46.188210" lon="15.108688">
        <ele>1099.7266271616</ele>
        <time>2015-12-05T22:14:32Z</time>
      </trkpt>
      <trkpt lat="46.188287" lon="15.108633">
        <ele>1099.536629472</ele>
        <time>2015-12-05T22:14:38Z</time>
      </trkpt>
      <trkpt lat="46.188287" lon="15.108595">
        <ele>1099.9166248512</ele>
        <time>2015-12-05T22:14:50Z</time>
      </trkpt>
      <trkpt lat="46.188300" lon="15.108672">
        <ele>1100.5466171904</ele>
        <time>2015-12-05T22:15:06Z</time>
      </trkpt>
      <trkpt lat="46.188280" lon="15.108649">
        <ele>1100.3466196224</ele>
        <time>2015-12-05T22:15:19Z</time>
      </trkpt>
      <trkpt lat="46.188260" lon="15.108622">
        <ele>1099.2166333632</ele>
        <time>2015-12-05T22:15:34Z</time>
      </trkpt>
      <trkpt lat="46.188272" lon="15.108635">
        <ele>1098.7566389568</ele>
        <time>2015-12-05T22:15:42Z</time>
      </trkpt>
      <trkpt lat="46.188312" lon="15.108632">
        <ele>1099.7966263104</ele>
        <time>2015-12-05T22:15:54Z</time>
      </trkpt>
      <trkpt lat="46.188312" lon="15.108605">
        <ele>1099.2166333632</ele>
        <time>2015-12-05T22:16:05Z</time>
      </trkpt>
      <trkpt lat="46.188300" lon="15.108548">
        <ele>1098.8666376192</ele>
        <time>2015-12-05T22:16:16Z</time>
      </trkpt>
      <trkpt lat="46.188310" lon="15.108508">
        <ele>1099.48663008</ele>
        <time>2015-12-05T22:16:27Z</time>
      </trkpt>
      <trkpt lat="46.188307" lon="15.108442">
        <ele>1099.6166284992</ele>
        <time>2015-12-05T22:16:35Z</time>
      </trkpt>
      <trkpt lat="46.188296" lon="15.108395">
        <ele>1100.3266198656</ele>
        <time>2015-12-05T22:16:43Z</time>
      </trkpt>
      <trkpt lat="46.188285" lon="15.108337">
        <ele>1099.9766241216</ele>
        <time>2015-12-05T22:16:53Z</time>
      </trkpt>
      <trkpt lat="46.188289" lon="15.108252">
        <ele>1097.6966518464</ele>
        <time>2015-12-05T22:17:05Z</time>
      </trkpt>
      <trkpt lat="46.188279" lon="15.108159">
        <ele>1097.936648928</ele>
        <time>2015-12-05T22:17:15Z</time>
      </trkpt>
      <trkpt lat="46.188269" lon="15.108060">
        <ele>1094.9266855296</ele>
        <time>2015-12-05T22:17:25Z</time>
      </trkpt>
      <trkpt lat="46.188268" lon="15.108046">
        <ele>1094.0066967168</ele>
        <time>2015-12-05T22:17:26Z</time>
      </trkpt>
      <trkpt lat="46.188280" lon="15.107971">
        <ele>1090.886734656</ele>
        <time>2015-12-05T22:17:36Z</time>
      </trkpt>
      <trkpt lat="46.188318" lon="15.108012">
        <ele>1088.4467643264</ele>
        <time>2015-12-05T22:17:47Z</time>
      </trkpt>
      <trkpt lat="46.188390" lon="15.108091">
        <ele>1085.3568019008</ele>
        <time>2015-12-05T22:17:56Z</time>
      </trkpt>
      <trkpt lat="46.188456" lon="15.108163">
        <ele>1082.7268338816</ele>
        <time>2015-12-05T22:18:04Z</time>
      </trkpt>
      <trkpt lat="46.188502" lon="15.108217">
        <ele>1080.2068645248</ele>
        <time>2015-12-05T22:18:15Z</time>
      </trkpt>
      <trkpt lat="46.188552" lon="15.108259">
        <ele>1076.98690368</ele>
        <time>2015-12-05T22:18:24Z</time>
      </trkpt>
      <trkpt lat="46.188595" lon="15.108303">
        <ele>1074.0169397952</ele>
        <time>2015-12-05T22:18:35Z</time>
      </trkpt>
      <trkpt lat="46.188605" lon="15.108312">
        <ele>1073.3769475776</ele>
        <time>2015-12-05T22:18:36Z</time>
      </trkpt>
      <trkpt lat="46.188679" lon="15.108387">
        <ele>1070.2569855168</ele>
        <time>2015-12-05T22:18:47Z</time>
      </trkpt>
      <trkpt lat="46.188806" lon="15.108442">
        <ele>1067.2470221184</ele>
        <time>2015-12-05T22:18:57Z</time>
      </trkpt>
      <trkpt lat="46.188901" lon="15.108506">
        <ele>1064.4170565312</ele>
        <time>2015-12-05T22:19:08Z</time>
      </trkpt>
      <trkpt lat="46.188905" lon="15.108497">
        <ele>1064.4170565312</ele>
        <time>2015-12-05T22:19:09Z</time>
      </trkpt>
      <trkpt lat="46.188900" lon="15.108410">
        <ele>1063.2670705152</ele>
        <time>2015-12-05T22:19:14Z</time>
      </trkpt>
      <trkpt lat="46.188891" lon="15.108375">
        <ele>1062.7470768384</ele>
        <time>2015-12-05T22:19:17Z</time>
      </trkpt>
      <trkpt lat="46.188853" lon="15.108237">
        <ele>1060.9670984832</ele>
        <time>2015-12-05T22:19:24Z</time>
      </trkpt>
      <trkpt lat="46.188824" lon="15.108114">
        <ele>1058.6271269376</ele>
        <time>2015-12-05T22:19:33Z</time>
      </trkpt>
      <trkpt lat="46.188795" lon="15.108009">
        <ele>1057.4871408</ele>
        <time>2015-12-05T22:19:40Z</time>
      </trkpt>
      <trkpt lat="46.188749" lon="15.107914">
        <ele>1055.9171598912</ele>
        <time>2015-12-05T22:19:48Z</time>
      </trkpt>
      <trkpt lat="46.188733" lon="15.107875">
        <ele>1055.5271646336</ele>
        <time>2015-12-05T22:19:52Z</time>
      </trkpt>
      <trkpt lat="46.188690" lon="15.107762">
        <ele>1056.687150528</ele>
        <time>2015-12-05T22:20:00Z</time>
      </trkpt>
      <trkpt lat="46.188660" lon="15.107682">
        <ele>1056.387154176</ele>
        <time>2015-12-05T22:20:06Z</time>
      </trkpt>
      <trkpt lat="46.188653" lon="15.107645">
        <ele>1055.7771615936</ele>
        <time>2015-12-05T22:20:07Z</time>
      </trkpt>
      <trkpt lat="46.188605" lon="15.107518">
        <ele>1053.7671860352</ele>
        <time>2015-12-05T22:20:16Z</time>
      </trkpt>
      <trkpt lat="46.188599" lon="15.107505">
        <ele>1053.6071879808</ele>
        <time>2015-12-05T22:20:18Z</time>
      </trkpt>
      <trkpt lat="46.188567" lon="15.107462">
        <ele>1052.4572019648</ele>
        <time>2015-12-05T22:20:27Z</time>
      </trkpt>
      <trkpt lat="46.188571" lon="15.107427">
        <ele>1051.3472154624</ele>
        <time>2015-12-05T22:20:41Z</time>
      </trkpt>
      <trkpt lat="46.188574" lon="15.107372">
        <ele>1051.3672152192</ele>
        <time>2015-12-05T22:20:53Z</time>
      </trkpt>
      <trkpt lat="46.188563" lon="15.107269">
        <ele>1051.2672164352</ele>
        <time>2015-12-05T22:21:08Z</time>
      </trkpt>
      <trkpt lat="46.188556" lon="15.107344">
        <ele>1051.287216192</ele>
        <time>2015-12-05T22:21:20Z</time>
      </trkpt>
      <trkpt lat="46.188554" lon="15.107368">
        <ele>1051.2472166784</ele>
        <time>2015-12-05T22:21:25Z</time>
      </trkpt>
      <trkpt lat="46.188554" lon="15.107341">
        <ele>1051.4472142464</ele>
        <time>2015-12-05T22:21:40Z</time>
      </trkpt>
      <trkpt lat="46.188522" lon="15.107324">
        <ele>1050.8572214208</ele>
        <time>2015-12-05T22:21:52Z</time>
      </trkpt>
      <trkpt lat="46.188532" lon="15.107275">
        <ele>1050.1972294464</ele>
        <time>2015-12-05T22:22:02Z</time>
      </trkpt>
      <trkpt lat="46.188550" lon="15.107244">
        <ele>1050.4672261632</ele>
        <time>2015-12-05T22:22:19Z</time>
      </trkpt>
      <trkpt lat="46.188581" lon="15.107236">
        <ele>1051.6472118144</ele>
        <time>2015-12-05T22:22:37Z</time>
      </trkpt>
      <trkpt lat="46.188585" lon="15.107175">
        <ele>1051.537213152</ele>
        <time>2015-12-05T22:22:45Z</time>
      </trkpt>
      <trkpt lat="46.188557" lon="15.107086">
        <ele>1050.8072220288</ele>
        <time>2015-12-05T22:22:53Z</time>
      </trkpt>
      <trkpt lat="46.188548" lon="15.107048">
        <ele>1050.387227136</ele>
        <time>2015-12-05T22:22:57Z</time>
      </trkpt>
      <trkpt lat="46.188527" lon="15.106929">
        <ele>1048.7972464704</ele>
        <time>2015-12-05T22:23:08Z</time>
      </trkpt>
      <trkpt lat="46.188512" lon="15.106841">
        <ele>1047.7172596032</ele>
        <time>2015-12-05T22:23:16Z</time>
      </trkpt>
      <trkpt lat="46.188491" lon="15.106746">
        <ele>1045.9772807616</ele>
        <time>2015-12-05T22:23:24Z</time>
      </trkpt>
      <trkpt lat="46.188485" lon="15.106648">
        <ele>1043.8973060544</ele>
        <time>2015-12-05T22:23:35Z</time>
      </trkpt>
      <trkpt lat="46.188504" lon="15.106484">
        <ele>1041.3273373056</ele>
        <time>2015-12-05T22:23:47Z</time>
      </trkpt>
      <trkpt lat="46.188510" lon="15.106438">
        <ele>1040.9073424128</ele>
        <time>2015-12-05T22:23:50Z</time>
      </trkpt>
      <trkpt lat="46.188537" lon="15.106295">
        <ele>1039.6473577344</ele>
        <time>2015-12-05T22:23:59Z</time>
      </trkpt>
      <trkpt lat="46.188557" lon="15.106163">
        <ele>1037.3173860672</ele>
        <time>2015-12-05T22:24:07Z</time>
      </trkpt>
      <trkpt lat="46.188568" lon="15.106031">
        <ele>1036.6073947008</ele>
        <time>2015-12-05T22:24:17Z</time>
      </trkpt>
      <trkpt lat="46.188552" lon="15.105876">
        <ele>1035.287410752</ele>
        <time>2015-12-05T22:24:26Z</time>
      </trkpt>
      <trkpt lat="46.188526" lon="15.105744">
        <ele>1033.0174383552</ele>
        <time>2015-12-05T22:24:36Z</time>
      </trkpt>
      <trkpt lat="46.188506" lon="15.105563">
        <ele>1031.0674620672</ele>
        <time>2015-12-05T22:24:45Z</time>
      </trkpt>
      <trkpt lat="46.188511" lon="15.105435">
        <ele>1030.0674742272</ele>
        <time>2015-12-05T22:24:53Z</time>
      </trkpt>
      <trkpt lat="46.188516" lon="15.105299">
        <ele>1027.9774996416</ele>
        <time>2015-12-05T22:25:04Z</time>
      </trkpt>
      <trkpt lat="46.188517" lon="15.105283">
        <ele>1027.7575023168</ele>
        <time>2015-12-05T22:25:04Z</time>
      </trkpt>
      <trkpt lat="46.188520" lon="15.105171">
        <ele>1026.2775203136</ele>
        <time>2015-12-05T22:25:12Z</time>
      </trkpt>
      <trkpt lat="46.188530" lon="15.105025">
        <ele>1023.8675496192</ele>
        <time>2015-12-05T22:25:21Z</time>
      </trkpt>
      <trkpt lat="46.188539" lon="15.104877">
        <ele>1022.6475644544</ele>
        <time>2015-12-05T22:25:30Z</time>
      </trkpt>
      <trkpt lat="46.188557" lon="15.104737">
        <ele>1022.0175721152</ele>
        <time>2015-12-05T22:25:38Z</time>
      </trkpt>
      <trkpt lat="46.188586" lon="15.104622">
        <ele>1020.7675873152</ele>
        <time>2015-12-05T22:25:47Z</time>
      </trkpt>
      <trkpt lat="46.188636" lon="15.104501">
        <ele>1019.1976064064</ele>
        <time>2015-12-05T22:25:55Z</time>
      </trkpt>
      <trkpt lat="46.188705" lon="15.104377">
        <ele>1018.2176183232</ele>
        <time>2015-12-05T22:26:02Z</time>
      </trkpt>
      <trkpt lat="46.188734" lon="15.104316">
        <ele>1017.8976222144</ele>
        <time>2015-12-05T22:26:06Z</time>
      </trkpt>
      <trkpt lat="46.188771" lon="15.104139">
        <ele>1016.6976368064</ele>
        <time>2015-12-05T22:26:17Z</time>
      </trkpt>
      <trkpt lat="46.188799" lon="15.104005">
        <ele>1015.5476507904</ele>
        <time>2015-12-05T22:26:25Z</time>
      </trkpt>
      <trkpt lat="46.188828" lon="15.103893">
        <ele>1014.7676602752</ele>
        <time>2015-12-05T22:26:33Z</time>
      </trkpt>
      <trkpt lat="46.188864" lon="15.103760">
        <ele>1013.8776710976</ele>
        <time>2015-12-05T22:26:41Z</time>
      </trkpt>
      <trkpt lat="46.188876" lon="15.103657">
        <ele>1013.3676772992</ele>
        <time>2015-12-05T22:26:49Z</time>
      </trkpt>
      <trkpt lat="46.188920" lon="15.103485">
        <ele>1013.3676772992</ele>
        <time>2015-12-05T22:27:01Z</time>
      </trkpt>
      <trkpt lat="46.188961" lon="15.103359">
        <ele>1013.4776759616</ele>
        <time>2015-12-05T22:27:12Z</time>
      </trkpt>
      <trkpt lat="46.189009" lon="15.103199">
        <ele>1014.4576640448</ele>
        <time>2015-12-05T22:27:22Z</time>
      </trkpt>
      <trkpt lat="46.189031" lon="15.103156">
        <ele>1014.8076597888</ele>
        <time>2015-12-05T22:27:24Z</time>
      </trkpt>
      <trkpt lat="46.189074" lon="15.103078">
        <ele>1015.9176462912</ele>
        <time>2015-12-05T22:27:31Z</time>
      </trkpt>
      <trkpt lat="46.189147" lon="15.102966">
        <ele>1017.23763024</ele>
        <time>2015-12-05T22:27:41Z</time>
      </trkpt>
      <trkpt lat="46.189178" lon="15.102917">
        <ele>1017.5176268352</ele>
        <time>2015-12-05T22:27:45Z</time>
      </trkpt>
      <trkpt lat="46.189223" lon="15.102807">
        <ele>1017.937621728</ele>
        <time>2015-12-05T22:27:50Z</time>
      </trkpt>
      <trkpt lat="46.189289" lon="15.102706">
        <ele>1019.187606528</ele>
        <time>2015-12-05T22:27:58Z</time>
      </trkpt>
      <trkpt lat="46.189358" lon="15.102559">
        <ele>1019.687600448</ele>
        <time>2015-12-05T22:28:05Z</time>
      </trkpt>
      <trkpt lat="46.189375" lon="15.102527">
        <ele>1019.7675994752</ele>
        <time>2015-12-05T22:28:06Z</time>
      </trkpt>
      <trkpt lat="46.189384" lon="15.102383">
        <ele>1020.4275914496</ele>
        <time>2015-12-05T22:28:13Z</time>
      </trkpt>
      <trkpt lat="46.189385" lon="15.102264">
        <ele>1019.887598016</ele>
        <time>2015-12-05T22:28:21Z</time>
      </trkpt>
      <trkpt lat="46.189394" lon="15.102142">
        <ele>1019.637601056</ele>
        <time>2015-12-05T22:28:29Z</time>
      </trkpt>
      <trkpt lat="46.189438" lon="15.102013">
        <ele>1019.7575995968</ele>
        <time>2015-12-05T22:28:37Z</time>
      </trkpt>
      <trkpt lat="46.189482" lon="15.101917">
        <ele>1019.9075977728</ele>
        <time>2015-12-05T22:28:45Z</time>
      </trkpt>
      <trkpt lat="46.189500" lon="15.101779">
        <ele>1019.9875968</ele>
        <time>2015-12-05T22:28:55Z</time>
      </trkpt>
      <trkpt lat="46.189524" lon="15.101663">
        <ele>1019.8175988672</ele>
        <time>2015-12-05T22:29:04Z</time>
      </trkpt>
      <trkpt lat="46.189528" lon="15.101590">
        <ele>1019.5676019072</ele>
        <time>2015-12-05T22:29:07Z</time>
      </trkpt>
      <trkpt lat="46.189536" lon="15.101427">
        <ele>1019.4976027584</ele>
        <time>2015-12-05T22:29:15Z</time>
      </trkpt>
      <trkpt lat="46.189573" lon="15.101284">
        <ele>1019.6176012992</ele>
        <time>2015-12-05T22:29:22Z</time>
      </trkpt>
      <trkpt lat="46.189589" lon="15.101236">
        <ele>1019.6476009344</ele>
        <time>2015-12-05T22:29:24Z</time>
      </trkpt>
      <trkpt lat="46.189610" lon="15.101116">
        <ele>1019.7675994752</ele>
        <time>2015-12-05T22:29:30Z</time>
      </trkpt>
      <trkpt lat="46.189621" lon="15.101080">
        <ele>1019.7775993536</ele>
        <time>2015-12-05T22:29:31Z</time>
      </trkpt>
      <trkpt lat="46.189643" lon="15.101002">
        <ele>1019.8775981376</ele>
        <time>2015-12-05T22:29:35Z</time>
      </trkpt>
      <trkpt lat="46.189661" lon="15.100929">
        <ele>1019.8675982592</ele>
        <time>2015-12-05T22:29:39Z</time>
      </trkpt>
      <trkpt lat="46.189675" lon="15.100833">
        <ele>1020.0175964352</ele>
        <time>2015-12-05T22:29:45Z</time>
      </trkpt>
      <trkpt lat="46.189672" lon="15.100790">
        <ele>1020.0175964352</ele>
        <time>2015-12-05T22:29:46Z</time>
      </trkpt>
      <trkpt lat="46.189680" lon="15.100632">
        <ele>1019.9675970432</ele>
        <time>2015-12-05T22:29:54Z</time>
      </trkpt>
      <trkpt lat="46.189670" lon="15.100514">
        <ele>1020.1675946112</ele>
        <time>2015-12-05T22:30:00Z</time>
      </trkpt>
      <trkpt lat="46.189665" lon="15.100396">
        <ele>1020.0775957056</ele>
        <time>2015-12-05T22:30:05Z</time>
      </trkpt>
      <trkpt lat="46.189671" lon="15.100229">
        <ele>1019.5576020288</ele>
        <time>2015-12-05T22:30:14Z</time>
      </trkpt>
      <trkpt lat="46.189698" lon="15.100104">
        <ele>1019.3076050688</ele>
        <time>2015-12-05T22:30:23Z</time>
      </trkpt>
      <trkpt lat="46.189722" lon="15.099993">
        <ele>1019.1576068928</ele>
        <time>2015-12-05T22:30:31Z</time>
      </trkpt>
      <trkpt lat="46.189747" lon="15.099900">
        <ele>1019.2976051904</ele>
        <time>2015-12-05T22:30:37Z</time>
      </trkpt>
      <trkpt lat="46.189754" lon="15.099815">
        <ele>1019.0776078656</ele>
        <time>2015-12-05T22:30:43Z</time>
      </trkpt>
      <trkpt lat="46.189773" lon="15.099705">
        <ele>1018.837610784</ele>
        <time>2015-12-05T22:30:51Z</time>
      </trkpt>
      <trkpt lat="46.189795" lon="15.099601">
        <ele>1018.8776102976</ele>
        <time>2015-12-05T22:30:59Z</time>
      </trkpt>
      <trkpt lat="46.189804" lon="15.099569">
        <ele>1018.9176098112</ele>
        <time>2015-12-05T22:31:00Z</time>
      </trkpt>
      <trkpt lat="46.189820" lon="15.099424">
        <ele>1018.937609568</ele>
        <time>2015-12-05T22:31:10Z</time>
      </trkpt>
      <trkpt lat="46.189846" lon="15.099227">
        <ele>1018.4776151616</ele>
        <time>2015-12-05T22:31:19Z</time>
      </trkpt>
      <trkpt lat="46.189876" lon="15.099015">
        <ele>1018.4576154048</ele>
        <time>2015-12-05T22:31:30Z</time>
      </trkpt>
      <trkpt lat="46.189887" lon="15.098839">
        <ele>1017.9276218496</ele>
        <time>2015-12-05T22:31:38Z</time>
      </trkpt>
      <trkpt lat="46.189886" lon="15.098798">
        <ele>1017.687624768</ele>
        <time>2015-12-05T22:31:39Z</time>
      </trkpt>
      <trkpt lat="46.189891" lon="15.098602">
        <ele>1016.7776358336</ele>
        <time>2015-12-05T22:31:48Z</time>
      </trkpt>
      <trkpt lat="46.189884" lon="15.098524">
        <ele>1016.48763936</ele>
        <time>2015-12-05T22:31:52Z</time>
      </trkpt>
      <trkpt lat="46.189890" lon="15.098428">
        <ele>1016.2576421568</ele>
        <time>2015-12-05T22:31:56Z</time>
      </trkpt>
      <trkpt lat="46.189871" lon="15.098242">
        <ele>1015.8176475072</ele>
        <time>2015-12-05T22:32:05Z</time>
      </trkpt>
      <trkpt lat="46.189863" lon="15.098151">
        <ele>1015.637649696</ele>
        <time>2015-12-05T22:32:09Z</time>
      </trkpt>
      <trkpt lat="46.189857" lon="15.098046">
        <ele>1015.3676529792</ele>
        <time>2015-12-05T22:32:13Z</time>
      </trkpt>
      <trkpt lat="46.189862" lon="15.098016">
        <ele>1015.2776540736</ele>
        <time>2015-12-05T22:32:16Z</time>
      </trkpt>
      <trkpt lat="46.189856" lon="15.097936">
        <ele>1014.9976574784</ele>
        <time>2015-12-05T22:32:20Z</time>
      </trkpt>
      <trkpt lat="46.189820" lon="15.097836">
        <ele>1014.8776589376</ele>
        <time>2015-12-05T22:32:24Z</time>
      </trkpt>
      <trkpt lat="46.189798" lon="15.097725">
        <ele>1014.9476580864</ele>
        <time>2015-12-05T22:32:31Z</time>
      </trkpt>
      <trkpt lat="46.189773" lon="15.097679">
        <ele>1014.9876576</ele>
        <time>2015-12-05T22:32:33Z</time>
      </trkpt>
      <trkpt lat="46.189774" lon="15.097600">
        <ele>1015.0176572352</ele>
        <time>2015-12-05T22:32:39Z</time>
      </trkpt>
      <trkpt lat="46.189795" lon="15.097445">
        <ele>1015.1276558976</ele>
        <time>2015-12-05T22:32:47Z</time>
      </trkpt>
      <trkpt lat="46.189796" lon="15.097307">
        <ele>1015.1976550464</ele>
        <time>2015-12-05T22:32:55Z</time>
      </trkpt>
      <trkpt lat="46.189808" lon="15.097249">
        <ele>1015.0476568704</ele>
        <time>2015-12-05T22:32:59Z</time>
      </trkpt>
      <trkpt lat="46.189806" lon="15.097154">
        <ele>1014.9976574784</ele>
        <time>2015-12-05T22:33:03Z</time>
      </trkpt>
      <trkpt lat="46.189796" lon="15.097019">
        <ele>1015.0576567488</ele>
        <time>2015-12-05T22:33:10Z</time>
      </trkpt>
      <trkpt lat="46.189792" lon="15.096868">
        <ele>1014.73766064</ele>
        <time>2015-12-05T22:33:18Z</time>
      </trkpt>
      <trkpt lat="46.189788" lon="15.096815">
        <ele>1014.5676627072</ele>
        <time>2015-12-05T22:33:22Z</time>
      </trkpt>
      <trkpt lat="46.189775" lon="15.096628">
        <ele>1013.5476751104</ele>
        <time>2015-12-05T22:33:30Z</time>
      </trkpt>
      <trkpt lat="46.189765" lon="15.096568">
        <ele>1013.1176803392</ele>
        <time>2015-12-05T22:33:34Z</time>
      </trkpt>
      <trkpt lat="46.189746" lon="15.096341">
        <ele>1011.7276972416</ele>
        <time>2015-12-05T22:33:41Z</time>
      </trkpt>
      <trkpt lat="46.189738" lon="15.096191">
        <ele>1010.5077120768</ele>
        <time>2015-12-05T22:33:49Z</time>
      </trkpt>
      <trkpt lat="46.189759" lon="15.096066">
        <ele>1009.5577236288</ele>
        <time>2015-12-05T22:33:57Z</time>
      </trkpt>
      <trkpt lat="46.189803" lon="15.095941">
        <ele>1009.0277300736</ele>
        <time>2015-12-05T22:34:04Z</time>
      </trkpt>
      <trkpt lat="46.189834" lon="15.095767">
        <ele>1008.3277385856</ele>
        <time>2015-12-05T22:34:15Z</time>
      </trkpt>
      <trkpt lat="46.189837" lon="15.095744">
        <ele>1008.2777391936</ele>
        <time>2015-12-05T22:34:16Z</time>
      </trkpt>
      <trkpt lat="46.189854" lon="15.095583">
        <ele>1007.5677478272</ele>
        <time>2015-12-05T22:34:24Z</time>
      </trkpt>
      <trkpt lat="46.189828" lon="15.095421">
        <ele>1006.4777610816</ele>
        <time>2015-12-05T22:34:31Z</time>
      </trkpt>
      <trkpt lat="46.189821" lon="15.095368">
        <ele>1006.0477663104</ele>
        <time>2015-12-05T22:34:35Z</time>
      </trkpt>
      <trkpt lat="46.189787" lon="15.095242">
        <ele>1005.2577759168</ele>
        <time>2015-12-05T22:34:40Z</time>
      </trkpt>
      <trkpt lat="46.189735" lon="15.095070">
        <ele>1003.787793792</ele>
        <time>2015-12-05T22:34:51Z</time>
      </trkpt>
      <trkpt lat="46.189699" lon="15.094911">
        <ele>1002.6278078976</ele>
        <time>2015-12-05T22:34:58Z</time>
      </trkpt>
      <trkpt lat="46.189664" lon="15.094795">
        <ele>1000.6578318528</ele>
        <time>2015-12-05T22:35:06Z</time>
      </trkpt>
      <trkpt lat="46.189657" lon="15.094767">
        <ele>1000.0778389056</ele>
        <time>2015-12-05T22:35:07Z</time>
      </trkpt>
      <trkpt lat="46.189656" lon="15.094714">
        <ele>999.4178469312</ele>
        <time>2015-12-05T22:35:10Z</time>
      </trkpt>
      <trkpt lat="46.189643" lon="15.094561">
        <ele>997.5578695488</ele>
        <time>2015-12-05T22:35:20Z</time>
      </trkpt>
      <trkpt lat="46.189642" lon="15.094511">
        <ele>996.9178773312</ele>
        <time>2015-12-05T22:35:22Z</time>
      </trkpt>
      <trkpt lat="46.189646" lon="15.094357">
        <ele>995.137898976</ele>
        <time>2015-12-05T22:35:32Z</time>
      </trkpt>
      <trkpt lat="46.189644" lon="15.094342">
        <ele>994.9879008</ele>
        <time>2015-12-05T22:35:33Z</time>
      </trkpt>
      <trkpt lat="46.189656" lon="15.094196">
        <ele>993.737916</ele>
        <time>2015-12-05T22:35:41Z</time>
      </trkpt>
      <trkpt lat="46.189670" lon="15.094045">
        <ele>992.6979286464</ele>
        <time>2015-12-05T22:35:49Z</time>
      </trkpt>
      <trkpt lat="46.189701" lon="15.093853">
        <ele>990.98794944</ele>
        <time>2015-12-05T22:36:00Z</time>
      </trkpt>
      <trkpt lat="46.189712" lon="15.093749">
        <ele>990.0979602624</ele>
        <time>2015-12-05T22:36:05Z</time>
      </trkpt>
      <trkpt lat="46.189727" lon="15.093564">
        <ele>988.8179758272</ele>
        <time>2015-12-05T22:36:16Z</time>
      </trkpt>
      <trkpt lat="46.189744" lon="15.093455">
        <ele>988.3579814208</ele>
        <time>2015-12-05T22:36:23Z</time>
      </trkpt>
      <trkpt lat="46.189759" lon="15.093341">
        <ele>988.037985312</ele>
        <time>2015-12-05T22:36:30Z</time>
      </trkpt>
      <trkpt lat="46.189762" lon="15.093199">
        <ele>987.1079966208</ele>
        <time>2015-12-05T22:36:38Z</time>
      </trkpt>
      <trkpt lat="46.189773" lon="15.093046">
        <ele>986.2780067136</ele>
        <time>2015-12-05T22:36:46Z</time>
      </trkpt>
      <trkpt lat="46.189780" lon="15.092890">
        <ele>985.4580166848</ele>
        <time>2015-12-05T22:36:54Z</time>
      </trkpt>
      <trkpt lat="46.189780" lon="15.092843">
        <ele>984.788024832</ele>
        <time>2015-12-05T22:36:57Z</time>
      </trkpt>
      <trkpt lat="46.189789" lon="15.092690">
        <ele>983.8480362624</ele>
        <time>2015-12-05T22:37:05Z</time>
      </trkpt>
      <trkpt lat="46.189780" lon="15.092554">
        <ele>983.5580397888</ele>
        <time>2015-12-05T22:37:10Z</time>
      </trkpt>
      <trkpt lat="46.189786" lon="15.092466">
        <ele>983.088045504</ele>
        <time>2015-12-05T22:37:16Z</time>
      </trkpt>
      <trkpt lat="46.189809" lon="15.092294">
        <ele>982.2680554752</ele>
        <time>2015-12-05T22:37:25Z</time>
      </trkpt>
      <trkpt lat="46.189823" lon="15.092095">
        <ele>981.7280620416</ele>
        <time>2015-12-05T22:37:33Z</time>
      </trkpt>
      <trkpt lat="46.189840" lon="15.091869">
        <ele>981.7680615552</ele>
        <time>2015-12-05T22:37:44Z</time>
      </trkpt>
      <trkpt lat="46.189861" lon="15.091705">
        <ele>982.0180585152</ele>
        <time>2015-12-05T22:37:53Z</time>
      </trkpt>
      <trkpt lat="46.189899" lon="15.091488">
        <ele>982.3780541376</ele>
        <time>2015-12-05T22:38:04Z</time>
      </trkpt>
      <trkpt lat="46.189925" lon="15.091266">
        <ele>981.838060704</ele>
        <time>2015-12-05T22:38:16Z</time>
      </trkpt>
      <trkpt lat="46.189932" lon="15.091173">
        <ele>981.8680603392</ele>
        <time>2015-12-05T22:38:23Z</time>
      </trkpt>
      <trkpt lat="46.189932" lon="15.091162">
        <ele>981.888060096</ele>
        <time>2015-12-05T22:38:24Z</time>
      </trkpt>
      <trkpt lat="46.189889" lon="15.091003">
        <ele>980.3180791872</ele>
        <time>2015-12-05T22:38:35Z</time>
      </trkpt>
      <trkpt lat="46.189821" lon="15.090900">
        <ele>978.8280973056</ele>
        <time>2015-12-05T22:38:43Z</time>
      </trkpt>
      <trkpt lat="46.189789" lon="15.090826">
        <ele>978.2681041152</ele>
        <time>2015-12-05T22:38:49Z</time>
      </trkpt>
      <trkpt lat="46.189691" lon="15.090681">
        <ele>977.0481189504</ele>
        <time>2015-12-05T22:39:00Z</time>
      </trkpt>
      <trkpt lat="46.189617" lon="15.090574">
        <ele>976.138130016</ele>
        <time>2015-12-05T22:39:08Z</time>
      </trkpt>
      <trkpt lat="46.189520" lon="15.090447">
        <ele>975.3081401088</ele>
        <time>2015-12-05T22:39:17Z</time>
      </trkpt>
      <trkpt lat="46.189433" lon="15.090367">
        <ele>974.2281532416</ele>
        <time>2015-12-05T22:39:25Z</time>
      </trkpt>
      <trkpt lat="46.189373" lon="15.090318">
        <ele>973.6081607808</ele>
        <time>2015-12-05T22:39:31Z</time>
      </trkpt>
      <trkpt lat="46.189263" lon="15.090260">
        <ele>972.5081741568</ele>
        <time>2015-12-05T22:39:39Z</time>
      </trkpt>
      <trkpt lat="46.189168" lon="15.090235">
        <ele>971.2281897216</ele>
        <time>2015-12-05T22:39:48Z</time>
      </trkpt>
      <trkpt lat="46.189077" lon="15.090237">
        <ele>969.4082118528</ele>
        <time>2015-12-05T22:39:56Z</time>
      </trkpt>
      <trkpt lat="46.188963" lon="15.090204">
        <ele>967.7182324032</ele>
        <time>2015-12-05T22:40:06Z</time>
      </trkpt>
      <trkpt lat="46.188881" lon="15.090178">
        <ele>965.8682548992</ele>
        <time>2015-12-05T22:40:12Z</time>
      </trkpt>
      <trkpt lat="46.188794" lon="15.090159">
        <ele>964.8082677888</ele>
        <time>2015-12-05T22:40:19Z</time>
      </trkpt>
      <trkpt lat="46.188692" lon="15.090139">
        <ele>963.2182871232</ele>
        <time>2015-12-05T22:40:26Z</time>
      </trkpt>
      <trkpt lat="46.188635" lon="15.090123">
        <ele>962.388297216</ele>
        <time>2015-12-05T22:40:31Z</time>
      </trkpt>
      <trkpt lat="46.188595" lon="15.090126">
        <ele>961.98830208</ele>
        <time>2015-12-05T22:40:35Z</time>
      </trkpt>
      <trkpt lat="46.188480" lon="15.090116">
        <ele>960.0683254272</ele>
        <time>2015-12-05T22:40:46Z</time>
      </trkpt>
      <trkpt lat="46.188373" lon="15.090053">
        <ele>958.7783411136</ele>
        <time>2015-12-05T22:40:53Z</time>
      </trkpt>
      <trkpt lat="46.188244" lon="15.090028">
        <ele>956.7483657984</ele>
        <time>2015-12-05T22:41:04Z</time>
      </trkpt>
      <trkpt lat="46.188196" lon="15.090007">
        <ele>956.0483743104</ele>
        <time>2015-12-05T22:41:08Z</time>
      </trkpt>
      <trkpt lat="46.188121" lon="15.089982">
        <ele>955.0283867136</ele>
        <time>2015-12-05T22:41:13Z</time>
      </trkpt>
      <trkpt lat="46.187989" lon="15.089924">
        <ele>954.2283964416</ele>
        <time>2015-12-05T22:41:24Z</time>
      </trkpt>
      <trkpt lat="46.187881" lon="15.089857">
        <ele>953.4584058048</ele>
        <time>2015-12-05T22:41:32Z</time>
      </trkpt>
      <trkpt lat="46.187760" lon="15.089784">
        <ele>952.6584155328</ele>
        <time>2015-12-05T22:41:40Z</time>
      </trkpt>
      <trkpt lat="46.187597" lon="15.089707">
        <ele>951.2084331648</ele>
        <time>2015-12-05T22:41:52Z</time>
      </trkpt>
      <trkpt lat="46.187448" lon="15.089608">
        <ele>950.3784432576</ele>
        <time>2015-12-05T22:42:03Z</time>
      </trkpt>
      <trkpt lat="46.187347" lon="15.089548">
        <ele>949.9284487296</ele>
        <time>2015-12-05T22:42:11Z</time>
      </trkpt>
      <trkpt lat="46.187258" lon="15.089500">
        <ele>949.3584556608</ele>
        <time>2015-12-05T22:42:19Z</time>
      </trkpt>
      <trkpt lat="46.187143" lon="15.089419">
        <ele>948.9984600384</ele>
        <time>2015-12-05T22:42:29Z</time>
      </trkpt>
      <trkpt lat="46.187051" lon="15.089300">
        <ele>948.1284706176</ele>
        <time>2015-12-05T22:42:38Z</time>
      </trkpt>
      <trkpt lat="46.186986" lon="15.089196">
        <ele>947.1484825344</ele>
        <time>2015-12-05T22:42:46Z</time>
      </trkpt>
      <trkpt lat="46.186924" lon="15.089042">
        <ele>944.7485117184</ele>
        <time>2015-12-05T22:42:57Z</time>
      </trkpt>
      <trkpt lat="46.186896" lon="15.088949">
        <ele>943.0685321472</ele>
        <time>2015-12-05T22:43:03Z</time>
      </trkpt>
      <trkpt lat="46.186866" lon="15.088770">
        <ele>939.688573248</ele>
        <time>2015-12-05T22:43:12Z</time>
      </trkpt>
      <trkpt lat="46.186861" lon="15.088732">
        <ele>939.2785782336</ele>
        <time>2015-12-05T22:43:15Z</time>
      </trkpt>
      <trkpt lat="46.186860" lon="15.088688">
        <ele>938.938582368</ele>
        <time>2015-12-05T22:43:16Z</time>
      </trkpt>
      <trkpt lat="46.186825" lon="15.088502">
        <ele>937.5185996352</ele>
        <time>2015-12-05T22:43:27Z</time>
      </trkpt>
      <trkpt lat="46.186792" lon="15.088398">
        <ele>936.5986108224</ele>
        <time>2015-12-05T22:43:32Z</time>
      </trkpt>
      <trkpt lat="46.186776" lon="15.088285">
        <ele>935.2586271168</ele>
        <time>2015-12-05T22:43:39Z</time>
      </trkpt>
      <trkpt lat="46.186745" lon="15.088215">
        <ele>934.1086411008</ele>
        <time>2015-12-05T22:43:44Z</time>
      </trkpt>
      <trkpt lat="46.186691" lon="15.088028">
        <ele>932.3486625024</ele>
        <time>2015-12-05T22:43:55Z</time>
      </trkpt>
      <trkpt lat="46.186678" lon="15.087983">
        <ele>931.6586708928</ele>
        <time>2015-12-05T22:43:58Z</time>
      </trkpt>
      <trkpt lat="46.186669" lon="15.087940">
        <ele>931.3486746624</ele>
        <time>2015-12-05T22:44:01Z</time>
      </trkpt>
      <trkpt lat="46.186642" lon="15.087877">
        <ele>930.3986862144</ele>
        <time>2015-12-05T22:44:06Z</time>
      </trkpt>
      <trkpt lat="46.186611" lon="15.087747">
        <ele>928.6087079808</ele>
        <time>2015-12-05T22:44:14Z</time>
      </trkpt>
      <trkpt lat="46.186582" lon="15.087631">
        <ele>927.1787253696</ele>
        <time>2015-12-05T22:44:22Z</time>
      </trkpt>
      <trkpt lat="46.186562" lon="15.087467">
        <ele>925.4187467712</ele>
        <time>2015-12-05T22:44:32Z</time>
      </trkpt>
      <trkpt lat="46.186531" lon="15.087366">
        <ele>924.3687595392</ele>
        <time>2015-12-05T22:44:38Z</time>
      </trkpt>
      <trkpt lat="46.186510" lon="15.087212">
        <ele>922.5187820352</ele>
        <time>2015-12-05T22:44:49Z</time>
      </trkpt>
      <trkpt lat="46.186475" lon="15.087072">
        <ele>919.5588180288</ele>
        <time>2015-12-05T22:44:57Z</time>
      </trkpt>
      <trkpt lat="46.186455" lon="15.086936">
        <ele>917.8188391872</ele>
        <time>2015-12-05T22:45:04Z</time>
      </trkpt>
      <trkpt lat="46.186430" lon="15.086718">
        <ele>915.6688653312</ele>
        <time>2015-12-05T22:45:14Z</time>
      </trkpt>
      <trkpt lat="46.186405" lon="15.086623">
        <ele>914.1088843008</ele>
        <time>2015-12-05T22:45:19Z</time>
      </trkpt>
      <trkpt lat="46.186377" lon="15.086551">
        <ele>912.4089049728</ele>
        <time>2015-12-05T22:45:24Z</time>
      </trkpt>
      <trkpt lat="46.186377" lon="15.086635">
        <ele>910.7789247936</ele>
        <time>2015-12-05T22:45:42Z</time>
      </trkpt>
      <trkpt lat="46.186359" lon="15.086653">
        <ele>911.438916768</ele>
        <time>2015-12-05T22:45:59Z</time>
      </trkpt>
      <trkpt lat="46.186370" lon="15.086640">
        <ele>911.8089122688</ele>
        <time>2015-12-05T22:46:13Z</time>
      </trkpt>
      <trkpt lat="46.186394" lon="15.086663">
        <ele>911.3289181056</ele>
        <time>2015-12-05T22:46:29Z</time>
      </trkpt>
      <trkpt lat="46.186355" lon="15.086646">
        <ele>911.7289132416</ele>
        <time>2015-12-05T22:46:49Z</time>
      </trkpt>
      <trkpt lat="46.186380" lon="15.086601">
        <ele>911.7689127552</ele>
        <time>2015-12-05T22:47:11Z</time>
      </trkpt>
      <trkpt lat="46.186401" lon="15.086639">
        <ele>912.138908256</ele>
        <time>2015-12-05T22:47:29Z</time>
      </trkpt>
      <trkpt lat="46.186404" lon="15.086683">
        <ele>912.6989014464</ele>
        <time>2015-12-05T22:47:42Z</time>
      </trkpt>
      <trkpt lat="46.186428" lon="15.086692">
        <ele>912.888899136</ele>
        <time>2015-12-05T22:47:58Z</time>
      </trkpt>
      <trkpt lat="46.186425" lon="15.086667">
        <ele>912.7789004736</ele>
        <time>2015-12-05T22:48:13Z</time>
      </trkpt>
      <trkpt lat="46.186465" lon="15.086624">
        <ele>912.688901568</ele>
        <time>2015-12-05T22:48:35Z</time>
      </trkpt>
      <trkpt lat="46.186418" lon="15.086602">
        <ele>912.5989026624</ele>
        <time>2015-12-05T22:48:55Z</time>
      </trkpt>
      <trkpt lat="46.186403" lon="15.086550">
        <ele>912.4589043648</ele>
        <time>2015-12-05T22:48:56Z</time>
      </trkpt>
      <trkpt lat="46.186334" lon="15.086399">
        <ele>911.1589201728</ele>
        <time>2015-12-05T22:49:04Z</time>
      </trkpt>
      <trkpt lat="46.186272" lon="15.086263">
        <ele>909.3789418176</ele>
        <time>2015-12-05T22:49:14Z</time>
      </trkpt>
      <trkpt lat="46.186179" lon="15.086176">
        <ele>907.3789661376</ele>
        <time>2015-12-05T22:49:22Z</time>
      </trkpt>
      <trkpt lat="46.186120" lon="15.086091">
        <ele>905.5589882688</ele>
        <time>2015-12-05T22:49:30Z</time>
      </trkpt>
      <trkpt lat="46.186083" lon="15.086017">
        <ele>904.3190033472</ele>
        <time>2015-12-05T22:49:38Z</time>
      </trkpt>
      <trkpt lat="46.186034" lon="15.085882">
        <ele>902.9490200064</ele>
        <time>2015-12-05T22:49:46Z</time>
      </trkpt>
      <trkpt lat="46.186014" lon="15.085755">
        <ele>901.9590320448</ele>
        <time>2015-12-05T22:49:53Z</time>
      </trkpt>
      <trkpt lat="46.186010" lon="15.085583">
        <ele>900.689047488</ele>
        <time>2015-12-05T22:50:01Z</time>
      </trkpt>
      <trkpt lat="46.186040" lon="15.085423">
        <ele>898.7490710784</ele>
        <time>2015-12-05T22:50:12Z</time>
      </trkpt>
      <trkpt lat="46.186038" lon="15.085362">
        <ele>898.1490783744</ele>
        <time>2015-12-05T22:50:15Z</time>
      </trkpt>
      <trkpt lat="46.186060" lon="15.085224">
        <ele>896.9190933312</ele>
        <time>2015-12-05T22:50:20Z</time>
      </trkpt>
      <trkpt lat="46.186074" lon="15.085086">
        <ele>895.1291150976</ele>
        <time>2015-12-05T22:50:28Z</time>
      </trkpt>
      <trkpt lat="46.186086" lon="15.084950">
        <ele>892.1191516992</ele>
        <time>2015-12-05T22:50:38Z</time>
      </trkpt>
      <trkpt lat="46.186110" lon="15.084800">
        <ele>889.0791886656</ele>
        <time>2015-12-05T22:50:47Z</time>
      </trkpt>
      <trkpt lat="46.186117" lon="15.084605">
        <ele>886.139224416</ele>
        <time>2015-12-05T22:50:59Z</time>
      </trkpt>
      <trkpt lat="46.186106" lon="15.084478">
        <ele>884.0092503168</ele>
        <time>2015-12-05T22:51:06Z</time>
      </trkpt>
      <trkpt lat="46.186086" lon="15.084337">
        <ele>882.0492741504</ele>
        <time>2015-12-05T22:51:13Z</time>
      </trkpt>
      <trkpt lat="46.186077" lon="15.084314">
        <ele>881.8092770688</ele>
        <time>2015-12-05T22:51:14Z</time>
      </trkpt>
      <trkpt lat="46.186063" lon="15.084269">
        <ele>881.3992820544</ele>
        <time>2015-12-05T22:51:15Z</time>
      </trkpt>
      <trkpt lat="46.186032" lon="15.084171">
        <ele>879.2793078336</ele>
        <time>2015-12-05T22:51:22Z</time>
      </trkpt>
      <trkpt lat="46.186003" lon="15.084093">
        <ele>878.0793224256</ele>
        <time>2015-12-05T22:51:26Z</time>
      </trkpt>
      <trkpt lat="46.185937" lon="15.083991">
        <ele>875.8793491776</ele>
        <time>2015-12-05T22:51:34Z</time>
      </trkpt>
      <trkpt lat="46.185926" lon="15.083963">
        <ele>875.2793564736</ele>
        <time>2015-12-05T22:51:37Z</time>
      </trkpt>
      <trkpt lat="46.185862" lon="15.083783">
        <ele>872.6493884544</ele>
        <time>2015-12-05T22:51:46Z</time>
      </trkpt>
      <trkpt lat="46.185834" lon="15.083683">
        <ele>870.3094169088</ele>
        <time>2015-12-05T22:51:54Z</time>
      </trkpt>
      <trkpt lat="46.185806" lon="15.083532">
        <ele>868.1094436608</ele>
        <time>2015-12-05T22:52:04Z</time>
      </trkpt>
      <trkpt lat="46.185789" lon="15.083368">
        <ele>865.1094801408</ele>
        <time>2015-12-05T22:52:15Z</time>
      </trkpt>
      <trkpt lat="46.185756" lon="15.083257">
        <ele>863.0995045824</ele>
        <time>2015-12-05T22:52:23Z</time>
      </trkpt>
      <trkpt lat="46.185717" lon="15.083145">
        <ele>861.389525376</ele>
        <time>2015-12-05T22:52:31Z</time>
      </trkpt>
      <trkpt lat="46.185679" lon="15.083047">
        <ele>859.7595451968</ele>
        <time>2015-12-05T22:52:36Z</time>
      </trkpt>
      <trkpt lat="46.185633" lon="15.082894">
        <ele>857.3095749888</ele>
        <time>2015-12-05T22:52:46Z</time>
      </trkpt>
      <trkpt lat="46.185622" lon="15.082761">
        <ele>855.3095993088</ele>
        <time>2015-12-05T22:52:54Z</time>
      </trkpt>
      <trkpt lat="46.185622" lon="15.082717">
        <ele>854.6596072128</ele>
        <time>2015-12-05T22:52:57Z</time>
      </trkpt>
      <trkpt lat="46.185620" lon="15.082676">
        <ele>854.2096126848</ele>
        <time>2015-12-05T22:52:58Z</time>
      </trkpt>
      <trkpt lat="46.185615" lon="15.082588">
        <ele>853.2296246016</ele>
        <time>2015-12-05T22:53:02Z</time>
      </trkpt>
      <trkpt lat="46.185589" lon="15.082439">
        <ele>850.8796531776</ele>
        <time>2015-12-05T22:53:11Z</time>
      </trkpt>
      <trkpt lat="46.185559" lon="15.082313">
        <ele>849.039675552</ele>
        <time>2015-12-05T22:53:21Z</time>
      </trkpt>
      <trkpt lat="46.185514" lon="15.082215">
        <ele>847.8296902656</ele>
        <time>2015-12-05T22:53:29Z</time>
      </trkpt>
      <trkpt lat="46.185479" lon="15.082080">
        <ele>846.0997113024</ele>
        <time>2015-12-05T22:53:37Z</time>
      </trkpt>
      <trkpt lat="46.185467" lon="15.082011">
        <ele>845.3797200576</ele>
        <time>2015-12-05T22:53:40Z</time>
      </trkpt>
      <trkpt lat="46.185449" lon="15.081923">
        <ele>844.5597300288</ele>
        <time>2015-12-05T22:53:44Z</time>
      </trkpt>
      <trkpt lat="46.185434" lon="15.081785">
        <ele>842.8697505792</ele>
        <time>2015-12-05T22:53:52Z</time>
      </trkpt>
      <trkpt lat="46.185420" lon="15.081655">
        <ele>841.1197718592</ele>
        <time>2015-12-05T22:53:59Z</time>
      </trkpt>
      <trkpt lat="46.185396" lon="15.081558">
        <ele>839.9597859648</ele>
        <time>2015-12-05T22:54:04Z</time>
      </trkpt>
      <trkpt lat="46.185376" lon="15.081504">
        <ele>839.2597944768</ele>
        <time>2015-12-05T22:54:07Z</time>
      </trkpt>
      <trkpt lat="46.185352" lon="15.081434">
        <ele>838.289806272</ele>
        <time>2015-12-05T22:54:11Z</time>
      </trkpt>
      <trkpt lat="46.185306" lon="15.081291">
        <ele>835.9998341184</ele>
        <time>2015-12-05T22:54:19Z</time>
      </trkpt>
      <trkpt lat="46.185289" lon="15.081252">
        <ele>835.3798416576</ele>
        <time>2015-12-05T22:54:23Z</time>
      </trkpt>
      <trkpt lat="46.185271" lon="15.081153">
        <ele>834.2698551552</ele>
        <time>2015-12-05T22:54:28Z</time>
      </trkpt>
      <trkpt lat="46.185245" lon="15.081059">
        <ele>832.8798720576</ele>
        <time>2015-12-05T22:54:35Z</time>
      </trkpt>
      <trkpt lat="46.185234" lon="15.080997">
        <ele>832.0598820288</ele>
        <time>2015-12-05T22:54:39Z</time>
      </trkpt>
      <trkpt lat="46.185224" lon="15.080854">
        <ele>830.7798975936</ele>
        <time>2015-12-05T22:54:47Z</time>
      </trkpt>
      <trkpt lat="46.185221" lon="15.080841">
        <ele>830.6198995392</ele>
        <time>2015-12-05T22:54:49Z</time>
      </trkpt>
      <trkpt lat="46.185212" lon="15.080747">
        <ele>830.0699062272</ele>
        <time>2015-12-05T22:54:54Z</time>
      </trkpt>
      <trkpt lat="46.185208" lon="15.080600">
        <ele>829.23991632</ele>
        <time>2015-12-05T22:55:02Z</time>
      </trkpt>
      <trkpt lat="46.185205" lon="15.080537">
        <ele>828.9299200896</ele>
        <time>2015-12-05T22:55:05Z</time>
      </trkpt>
      <trkpt lat="46.185216" lon="15.080419">
        <ele>827.8199335872</ele>
        <time>2015-12-05T22:55:13Z</time>
      </trkpt>
      <trkpt lat="46.185208" lon="15.080408">
        <ele>827.3199396672</ele>
        <time>2015-12-05T22:55:22Z</time>
      </trkpt>
      <trkpt lat="46.185217" lon="15.080371">
        <ele>827.2299407616</ele>
        <time>2015-12-05T22:55:25Z</time>
      </trkpt>
      <trkpt lat="46.185246" lon="15.080260">
        <ele>826.9799438016</ele>
        <time>2015-12-05T22:55:33Z</time>
      </trkpt>
      <trkpt lat="46.185258" lon="15.080221">
        <ele>826.889944896</ele>
        <time>2015-12-05T22:55:35Z</time>
      </trkpt>
      <trkpt lat="46.185257" lon="15.080045">
        <ele>826.8199457472</ele>
        <time>2015-12-05T22:55:44Z</time>
      </trkpt>
      <trkpt lat="46.185238" lon="15.079955">
        <ele>826.7199469632</ele>
        <time>2015-12-05T22:55:48Z</time>
      </trkpt>
      <trkpt lat="46.185210" lon="15.079827">
        <ele>826.1099543808</ele>
        <time>2015-12-05T22:55:56Z</time>
      </trkpt>
      <trkpt lat="46.185207" lon="15.079812">
        <ele>826.0099555968</ele>
        <time>2015-12-05T22:55:56Z</time>
      </trkpt>
      <trkpt lat="46.185189" lon="15.079686">
        <ele>825.23996496</ele>
        <time>2015-12-05T22:56:04Z</time>
      </trkpt>
      <trkpt lat="46.185155" lon="15.079521">
        <ele>824.589972864</ele>
        <time>2015-12-05T22:56:12Z</time>
      </trkpt>
      <trkpt lat="46.185132" lon="15.079408">
        <ele>824.3199761472</ele>
        <time>2015-12-05T22:56:18Z</time>
      </trkpt>
      <trkpt lat="46.185120" lon="15.079346">
        <ele>824.1699779712</ele>
        <time>2015-12-05T22:56:20Z</time>
      </trkpt>
      <trkpt lat="46.185096" lon="15.079229">
        <ele>823.8099823488</ele>
        <time>2015-12-05T22:56:27Z</time>
      </trkpt>
      <trkpt lat="46.185112" lon="15.079114">
        <ele>823.4299869696</ele>
        <time>2015-12-05T22:56:34Z</time>
      </trkpt>
      <trkpt lat="46.185116" lon="15.079013">
        <ele>823.2099896448</ele>
        <time>2015-12-05T22:56:39Z</time>
      </trkpt>
      <trkpt lat="46.185120" lon="15.078905">
        <ele>822.8799936576</ele>
        <time>2015-12-05T22:56:46Z</time>
      </trkpt>
      <trkpt lat="46.185117" lon="15.078885">
        <ele>822.8499940224</ele>
        <time>2015-12-05T22:56:46Z</time>
      </trkpt>
      <trkpt lat="46.185087" lon="15.078704">
        <ele>822.2600011968</ele>
        <time>2015-12-05T22:56:56Z</time>
      </trkpt>
      <trkpt lat="46.185081" lon="15.078678">
        <ele>821.7800070336</ele>
        <time>2015-12-05T22:57:01Z</time>
      </trkpt>
      <trkpt lat="46.185069" lon="15.078626">
        <ele>821.540009952</ele>
        <time>2015-12-05T22:57:04Z</time>
      </trkpt>
      <trkpt lat="46.185062" lon="15.078551">
        <ele>821.2700132352</ele>
        <time>2015-12-05T22:57:08Z</time>
      </trkpt>
      <trkpt lat="46.185054" lon="15.078468">
        <ele>820.6200211392</ele>
        <time>2015-12-05T22:57:12Z</time>
      </trkpt>
      <trkpt lat="46.185039" lon="15.078320">
        <ele>819.3200369472</ele>
        <time>2015-12-05T22:57:20Z</time>
      </trkpt>
      <trkpt lat="46.184998" lon="15.078136">
        <ele>816.790067712</ele>
        <time>2015-12-05T22:57:31Z</time>
      </trkpt>
      <trkpt lat="46.184991" lon="15.078091">
        <ele>816.0700764672</ele>
        <time>2015-12-05T22:57:33Z</time>
      </trkpt>
      <trkpt lat="46.184941" lon="15.077959">
        <ele>813.7101051648</ele>
        <time>2015-12-05T22:57:41Z</time>
      </trkpt>
      <trkpt lat="46.184901" lon="15.077821">
        <ele>811.3601337408</ele>
        <time>2015-12-05T22:57:52Z</time>
      </trkpt>
      <trkpt lat="46.184868" lon="15.077762">
        <ele>810.140148576</ele>
        <time>2015-12-05T22:57:56Z</time>
      </trkpt>
      <trkpt lat="46.184848" lon="15.077735">
        <ele>809.7201536832</ele>
        <time>2015-12-05T22:57:59Z</time>
      </trkpt>
      <trkpt lat="46.184824" lon="15.077684">
        <ele>809.1101611008</ele>
        <time>2015-12-05T22:58:02Z</time>
      </trkpt>
      <trkpt lat="46.184765" lon="15.077552">
        <ele>807.3001831104</ele>
        <time>2015-12-05T22:58:11Z</time>
      </trkpt>
      <trkpt lat="46.184737" lon="15.077435">
        <ele>805.8202011072</ele>
        <time>2015-12-05T22:58:18Z</time>
      </trkpt>
      <trkpt lat="46.184689" lon="15.077328">
        <ele>804.9202120512</ele>
        <time>2015-12-05T22:58:23Z</time>
      </trkpt>
      <trkpt lat="46.184655" lon="15.077218">
        <ele>804.1002220224</ele>
        <time>2015-12-05T22:58:30Z</time>
      </trkpt>
      <trkpt lat="46.184621" lon="15.077105">
        <ele>803.8102255488</ele>
        <time>2015-12-05T22:58:37Z</time>
      </trkpt>
      <trkpt lat="46.184584" lon="15.077023">
        <ele>803.6102279808</ele>
        <time>2015-12-05T22:58:42Z</time>
      </trkpt>
      <trkpt lat="46.184582" lon="15.076931">
        <ele>803.2802319936</ele>
        <time>2015-12-05T22:58:46Z</time>
      </trkpt>
      <trkpt lat="46.184544" lon="15.076796">
        <ele>802.4702418432</ele>
        <time>2015-12-05T22:58:53Z</time>
      </trkpt>
      <trkpt lat="46.184518" lon="15.076695">
        <ele>801.8002499904</ele>
        <time>2015-12-05T22:59:00Z</time>
      </trkpt>
      <trkpt lat="46.184513" lon="15.076660">
        <ele>801.6802514496</ele>
        <time>2015-12-05T22:59:01Z</time>
      </trkpt>
      <trkpt lat="46.184498" lon="15.076575">
        <ele>801.440254368</ele>
        <time>2015-12-05T22:59:06Z</time>
      </trkpt>
      <trkpt lat="46.184494" lon="15.076398">
        <ele>800.8002621504</ele>
        <time>2015-12-05T22:59:15Z</time>
      </trkpt>
      <trkpt lat="46.184493" lon="15.076389">
        <ele>800.7002633664</ele>
        <time>2015-12-05T22:59:16Z</time>
      </trkpt>
      <trkpt lat="46.184485" lon="15.076334">
        <ele>800.3102681088</ele>
        <time>2015-12-05T22:59:19Z</time>
      </trkpt>
      <trkpt lat="46.184473" lon="15.076224">
        <ele>799.24028112</ele>
        <time>2015-12-05T22:59:24Z</time>
      </trkpt>
      <trkpt lat="46.184440" lon="15.076140">
        <ele>798.5202898752</ele>
        <time>2015-12-05T22:59:31Z</time>
      </trkpt>
      <trkpt lat="46.184429" lon="15.076050">
        <ele>798.040295712</ele>
        <time>2015-12-05T22:59:35Z</time>
      </trkpt>
      <trkpt lat="46.184402" lon="15.075896">
        <ele>796.840310304</ele>
        <time>2015-12-05T22:59:43Z</time>
      </trkpt>
      <trkpt lat="46.184405" lon="15.075863">
        <ele>796.5103143168</ele>
        <time>2015-12-05T22:59:44Z</time>
      </trkpt>
      <trkpt lat="46.184403" lon="15.075738">
        <ele>795.24032976</ele>
        <time>2015-12-05T22:59:51Z</time>
      </trkpt>
      <trkpt lat="46.184388" lon="15.075667">
        <ele>794.6703366912</ele>
        <time>2015-12-05T22:59:55Z</time>
      </trkpt>
      <trkpt lat="46.184407" lon="15.075541">
        <ele>793.090355904</ele>
        <time>2015-12-05T23:00:02Z</time>
      </trkpt>
      <trkpt lat="46.184465" lon="15.075354">
        <ele>791.1103799808</ele>
        <time>2015-12-05T23:00:10Z</time>
      </trkpt>
      <trkpt lat="46.184486" lon="15.075303">
        <ele>790.3003898304</ele>
        <time>2015-12-05T23:00:14Z</time>
      </trkpt>
      <trkpt lat="46.184538" lon="15.075177">
        <ele>789.0504050304</ele>
        <time>2015-12-05T23:00:22Z</time>
      </trkpt>
      <trkpt lat="46.184577" lon="15.075087">
        <ele>788.4604122048</ele>
        <time>2015-12-05T23:00:27Z</time>
      </trkpt>
      <trkpt lat="46.184660" lon="15.075021">
        <ele>787.8304198656</ele>
        <time>2015-12-05T23:00:36Z</time>
      </trkpt>
      <trkpt lat="46.184797" lon="15.074945">
        <ele>787.0004299584</ele>
        <time>2015-12-05T23:00:46Z</time>
      </trkpt>
      <trkpt lat="46.184840" lon="15.074926">
        <ele>786.6704339712</ele>
        <time>2015-12-05T23:00:49Z</time>
      </trkpt>
      <trkpt lat="46.184923" lon="15.074801">
        <ele>785.4504488064</ele>
        <time>2015-12-05T23:00:57Z</time>
      </trkpt>
      <trkpt lat="46.184972" lon="15.074675">
        <ele>784.2204637632</ele>
        <time>2015-12-05T23:01:04Z</time>
      </trkpt>
      <trkpt lat="46.184963" lon="15.074529">
        <ele>783.5104723968</ele>
        <time>2015-12-05T23:01:09Z</time>
      </trkpt>
      <trkpt lat="46.184932" lon="15.074343">
        <ele>782.7304818816</ele>
        <time>2015-12-05T23:01:19Z</time>
      </trkpt>
      <trkpt lat="46.184924" lon="15.074298">
        <ele>782.5804837056</ele>
        <time>2015-12-05T23:01:20Z</time>
      </trkpt>
      <trkpt lat="46.184887" lon="15.074157">
        <ele>781.4704972032</ele>
        <time>2015-12-05T23:01:28Z</time>
      </trkpt>
      <trkpt lat="46.184851" lon="15.074083">
        <ele>780.9005041344</ele>
        <time>2015-12-05T23:01:34Z</time>
      </trkpt>
      <trkpt lat="46.184810" lon="15.073971">
        <ele>780.2805116736</ele>
        <time>2015-12-05T23:01:40Z</time>
      </trkpt>
      <trkpt lat="46.184739" lon="15.073825">
        <ele>779.5605204288</ele>
        <time>2015-12-05T23:01:48Z</time>
      </trkpt>
      <trkpt lat="46.184706" lon="15.073735">
        <ele>779.0105271168</ele>
        <time>2015-12-05T23:01:54Z</time>
      </trkpt>
      <trkpt lat="46.184685" lon="15.073620">
        <ele>778.390534656</ele>
        <time>2015-12-05T23:01:59Z</time>
      </trkpt>
      <trkpt lat="46.184693" lon="15.073463">
        <ele>777.6205440192</ele>
        <time>2015-12-05T23:02:07Z</time>
      </trkpt>
      <trkpt lat="46.184723" lon="15.073340">
        <ele>777.3105477888</ele>
        <time>2015-12-05T23:02:14Z</time>
      </trkpt>
      <trkpt lat="46.184726" lon="15.073324">
        <ele>777.190549248</ele>
        <time>2015-12-05T23:02:15Z</time>
      </trkpt>
      <trkpt lat="46.184727" lon="15.073296">
        <ele>777.0805505856</ele>
        <time>2015-12-05T23:02:18Z</time>
      </trkpt>
      <trkpt lat="46.184752" lon="15.073162">
        <ele>776.790554112</ele>
        <time>2015-12-05T23:02:25Z</time>
      </trkpt>
      <trkpt lat="46.184765" lon="15.073111">
        <ele>776.7805542336</ele>
        <time>2015-12-05T23:02:29Z</time>
      </trkpt>
      <trkpt lat="46.184776" lon="15.073071">
        <ele>776.7705543552</ele>
        <time>2015-12-05T23:02:32Z</time>
      </trkpt>
      <trkpt lat="46.184820" lon="15.072974">
        <ele>776.3305597056</ele>
        <time>2015-12-05T23:02:38Z</time>
      </trkpt>
      <trkpt lat="46.184831" lon="15.072946">
        <ele>776.2105611648</ele>
        <time>2015-12-05T23:02:41Z</time>
      </trkpt>
      <trkpt lat="46.184850" lon="15.072880">
        <ele>776.0305633536</ele>
        <time>2015-12-05T23:02:45Z</time>
      </trkpt>
      <trkpt lat="46.184908" lon="15.072767">
        <ele>775.3105721088</ele>
        <time>2015-12-05T23:02:53Z</time>
      </trkpt>
      <trkpt lat="46.184928" lon="15.072738">
        <ele>775.1305742976</ele>
        <time>2015-12-05T23:02:56Z</time>
      </trkpt>
      <trkpt lat="46.184995" lon="15.072615">
        <ele>774.5105818368</ele>
        <time>2015-12-05T23:03:04Z</time>
      </trkpt>
      <trkpt lat="46.185057" lon="15.072498">
        <ele>773.9705884032</ele>
        <time>2015-12-05T23:03:12Z</time>
      </trkpt>
      <trkpt lat="46.185090" lon="15.072348">
        <ele>772.9606006848</ele>
        <time>2015-12-05T23:03:20Z</time>
      </trkpt>
      <trkpt lat="46.185124" lon="15.072228">
        <ele>771.9206133312</ele>
        <time>2015-12-05T23:03:27Z</time>
      </trkpt>
      <trkpt lat="46.185149" lon="15.072087">
        <ele>771.2806211136</ele>
        <time>2015-12-05T23:03:35Z</time>
      </trkpt>
      <trkpt lat="46.185187" lon="15.071906">
        <ele>769.4506433664</ele>
        <time>2015-12-05T23:03:45Z</time>
      </trkpt>
      <trkpt lat="46.185205" lon="15.071810">
        <ele>768.2606578368</ele>
        <time>2015-12-05T23:03:50Z</time>
      </trkpt>
      <trkpt lat="46.185220" lon="15.071684">
        <ele>766.590678144</ele>
        <time>2015-12-05T23:03:58Z</time>
      </trkpt>
      <trkpt lat="46.185221" lon="15.071530">
        <ele>765.3006938304</ele>
        <time>2015-12-05T23:04:06Z</time>
      </trkpt>
      <trkpt lat="46.185234" lon="15.071373">
        <ele>763.6607137728</ele>
        <time>2015-12-05T23:04:16Z</time>
      </trkpt>
      <trkpt lat="46.185259" lon="15.071220">
        <ele>762.1707318912</ele>
        <time>2015-12-05T23:04:24Z</time>
      </trkpt>
      <trkpt lat="46.185317" lon="15.071103">
        <ele>760.8007485504</ele>
        <time>2015-12-05T23:04:32Z</time>
      </trkpt>
      <trkpt lat="46.185349" lon="15.071037">
        <ele>760.1307566976</ele>
        <time>2015-12-05T23:04:37Z</time>
      </trkpt>
      <trkpt lat="46.185397" lon="15.071032">
        <ele>759.3307664256</ele>
        <time>2015-12-05T23:04:44Z</time>
      </trkpt>
      <trkpt lat="46.185405" lon="15.071044">
        <ele>759.1207689792</ele>
        <time>2015-12-05T23:05:06Z</time>
      </trkpt>
      <trkpt lat="46.185403" lon="15.071033">
        <ele>759.4007655744</ele>
        <time>2015-12-05T23:05:15Z</time>
      </trkpt>
      <trkpt lat="46.185393" lon="15.070897">
        <ele>759.3107666688</ele>
        <time>2015-12-05T23:05:22Z</time>
      </trkpt>
      <trkpt lat="46.185401" lon="15.070871">
        <ele>759.2007680064</ele>
        <time>2015-12-05T23:05:23Z</time>
      </trkpt>
      <trkpt lat="46.185405" lon="15.070845">
        <ele>759.0807694656</ele>
        <time>2015-12-05T23:05:23Z</time>
      </trkpt>
      <trkpt lat="46.185406" lon="15.070822">
        <ele>758.9507710464</ele>
        <time>2015-12-05T23:05:24Z</time>
      </trkpt>
      <trkpt lat="46.185410" lon="15.070799">
        <ele>758.8007728704</ele>
        <time>2015-12-05T23:05:26Z</time>
      </trkpt>
      <trkpt lat="46.185414" lon="15.070774">
        <ele>758.6507746944</ele>
        <time>2015-12-05T23:05:27Z</time>
      </trkpt>
      <trkpt lat="46.185419" lon="15.070750">
        <ele>758.5007765184</ele>
        <time>2015-12-05T23:05:27Z</time>
      </trkpt>
      <trkpt lat="46.185424" lon="15.070727">
        <ele>758.3107788288</ele>
        <time>2015-12-05T23:05:29Z</time>
      </trkpt>
      <trkpt lat="46.185452" lon="15.070462">
        <ele>756.1608049728</ele>
        <time>2015-12-05T23:05:39Z</time>
      </trkpt>
      <trkpt lat="46.185453" lon="15.070276">
        <ele>754.8008215104</ele>
        <time>2015-12-05T23:05:49Z</time>
      </trkpt>
      <trkpt lat="46.185453" lon="15.070259">
        <ele>754.690822848</ele>
        <time>2015-12-05T23:05:50Z</time>
      </trkpt>
      <trkpt lat="46.185450" lon="15.070240">
        <ele>754.5708243072</ele>
        <time>2015-12-05T23:05:50Z</time>
      </trkpt>
      <trkpt lat="46.185434" lon="15.070039">
        <ele>753.7008348864</ele>
        <time>2015-12-05T23:06:01Z</time>
      </trkpt>
      <trkpt lat="46.185427" lon="15.069863">
        <ele>753.2808399936</ele>
        <time>2015-12-05T23:06:12Z</time>
      </trkpt>
      <trkpt lat="46.185426" lon="15.069673">
        <ele>752.4908496</ele>
        <time>2015-12-05T23:06:23Z</time>
      </trkpt>
      <trkpt lat="46.185423" lon="15.069508">
        <ele>751.790858112</ele>
        <time>2015-12-05T23:06:32Z</time>
      </trkpt>
      <trkpt lat="46.185431" lon="15.069328">
        <ele>751.4508622464</ele>
        <time>2015-12-05T23:06:43Z</time>
      </trkpt>
      <trkpt lat="46.185447" lon="15.069281">
        <ele>751.3308637056</ele>
        <time>2015-12-05T23:06:45Z</time>
      </trkpt>
      <trkpt lat="46.185450" lon="15.069263">
        <ele>751.2708644352</ele>
        <time>2015-12-05T23:06:47Z</time>
      </trkpt>
      <trkpt lat="46.185454" lon="15.069230">
        <ele>751.140866016</ele>
        <time>2015-12-05T23:06:48Z</time>
      </trkpt>
      <trkpt lat="46.185458" lon="15.069212">
        <ele>751.0508671104</ele>
        <time>2015-12-05T23:06:50Z</time>
      </trkpt>
      <trkpt lat="46.185467" lon="15.069189">
        <ele>750.9708680832</ele>
        <time>2015-12-05T23:06:51Z</time>
      </trkpt>
      <trkpt lat="46.185471" lon="15.069167">
        <ele>750.890869056</ele>
        <time>2015-12-05T23:06:52Z</time>
      </trkpt>
      <trkpt lat="46.185474" lon="15.069150">
        <ele>750.8308697856</ele>
        <time>2015-12-05T23:06:52Z</time>
      </trkpt>
      <trkpt lat="46.185476" lon="15.069132">
        <ele>750.7708705152</ele>
        <time>2015-12-05T23:06:54Z</time>
      </trkpt>
      <trkpt lat="46.185489" lon="15.069102">
        <ele>750.6108724608</ele>
        <time>2015-12-05T23:06:55Z</time>
      </trkpt>
      <trkpt lat="46.185499" lon="15.069084">
        <ele>750.5608730688</ele>
        <time>2015-12-05T23:06:56Z</time>
      </trkpt>
      <trkpt lat="46.185504" lon="15.069067">
        <ele>750.4708741632</ele>
        <time>2015-12-05T23:06:58Z</time>
      </trkpt>
      <trkpt lat="46.185557" lon="15.068941">
        <ele>749.9208808512</ele>
        <time>2015-12-05T23:07:06Z</time>
      </trkpt>
      <trkpt lat="46.185572" lon="15.068834">
        <ele>749.7808825536</ele>
        <time>2015-12-05T23:07:12Z</time>
      </trkpt>
      <trkpt lat="46.185594" lon="15.068698">
        <ele>749.7008835264</ele>
        <time>2015-12-05T23:07:21Z</time>
      </trkpt>
      <trkpt lat="46.185613" lon="15.068593">
        <ele>749.6608840128</ele>
        <time>2015-12-05T23:07:26Z</time>
      </trkpt>
      <trkpt lat="46.185618" lon="15.068561">
        <ele>749.7308831616</ele>
        <time>2015-12-05T23:07:29Z</time>
      </trkpt>
      <trkpt lat="46.185622" lon="15.068545">
        <ele>749.7608827968</ele>
        <time>2015-12-05T23:07:30Z</time>
      </trkpt>
      <trkpt lat="46.185622" lon="15.068415">
        <ele>749.6608840128</ele>
        <time>2015-12-05T23:07:38Z</time>
      </trkpt>
      <trkpt lat="46.185620" lon="15.068283">
        <ele>748.2609010368</ele>
        <time>2015-12-05T23:07:46Z</time>
      </trkpt>
      <trkpt lat="46.185603" lon="15.068229">
        <ele>747.5709094272</ele>
        <time>2015-12-05T23:07:53Z</time>
      </trkpt>
      <trkpt lat="46.185599" lon="15.068148">
        <ele>748.090903104</ele>
        <time>2015-12-05T23:08:05Z</time>
      </trkpt>
      <trkpt lat="46.185597" lon="15.068043">
        <ele>747.6209088192</ele>
        <time>2015-12-05T23:08:13Z</time>
      </trkpt>
      <trkpt lat="46.185600" lon="15.068024">
        <ele>747.4909104</ele>
        <time>2015-12-05T23:08:13Z</time>
      </trkpt>
      <trkpt lat="46.185600" lon="15.068004">
        <ele>747.3509121024</ele>
        <time>2015-12-05T23:08:15Z</time>
      </trkpt>
      <trkpt lat="46.185596" lon="15.067905">
        <ele>746.7709191552</ele>
        <time>2015-12-05T23:08:23Z</time>
      </trkpt>
      <trkpt lat="46.185598" lon="15.067776">
        <ele>746.940917088</ele>
        <time>2015-12-05T23:08:32Z</time>
      </trkpt>
      <trkpt lat="46.185617" lon="15.067637">
        <ele>746.6809202496</ele>
        <time>2015-12-05T23:08:40Z</time>
      </trkpt>
      <trkpt lat="46.185624" lon="15.067598">
        <ele>746.6509206144</ele>
        <time>2015-12-05T23:08:43Z</time>
      </trkpt>
      <trkpt lat="46.185624" lon="15.067580">
        <ele>746.690920128</ele>
        <time>2015-12-05T23:08:44Z</time>
      </trkpt>
      <trkpt lat="46.185619" lon="15.067453">
        <ele>746.7609192768</ele>
        <time>2015-12-05T23:08:52Z</time>
      </trkpt>
      <trkpt lat="46.185603" lon="15.067361">
        <ele>746.7009200064</ele>
        <time>2015-12-05T23:08:59Z</time>
      </trkpt>
      <trkpt lat="46.185567" lon="15.067184">
        <ele>746.6309208576</ele>
        <time>2015-12-05T23:09:10Z</time>
      </trkpt>
      <trkpt lat="46.185572" lon="15.067066">
        <ele>746.7309196416</ele>
        <time>2015-12-05T23:09:22Z</time>
      </trkpt>
      <trkpt lat="46.185517" lon="15.066919">
        <ele>747.090915264</ele>
        <time>2015-12-05T23:09:33Z</time>
      </trkpt>
      <trkpt lat="46.185512" lon="15.066710">
        <ele>748.4008993344</ele>
        <time>2015-12-05T23:09:45Z</time>
      </trkpt>
      <trkpt lat="46.185478" lon="15.066506">
        <ele>749.74088304</ele>
        <time>2015-12-05T23:09:54Z</time>
      </trkpt>
      <trkpt lat="46.185445" lon="15.066332">
        <ele>750.8708692992</ele>
        <time>2015-12-05T23:10:04Z</time>
      </trkpt>
      <trkpt lat="46.185429" lon="15.066189">
        <ele>752.1208540992</ele>
        <time>2015-12-05T23:10:16Z</time>
      </trkpt>
      <trkpt lat="46.185431" lon="15.066100">
        <ele>753.6608353728</ele>
        <time>2015-12-05T23:10:28Z</time>
      </trkpt>
      <trkpt lat="46.185481" lon="15.066012">
        <ele>755.5108128768</ele>
        <time>2015-12-05T23:10:42Z</time>
      </trkpt>
      <trkpt lat="46.185492" lon="15.065880">
        <ele>756.790797312</ele>
        <time>2015-12-05T23:10:51Z</time>
      </trkpt>
      <trkpt lat="46.185503" lon="15.065720">
        <ele>757.5807877056</ele>
        <time>2015-12-05T23:11:02Z</time>
      </trkpt>
      <trkpt lat="46.185508" lon="15.065599">
        <ele>759.0307700736</ele>
        <time>2015-12-05T23:11:14Z</time>
      </trkpt>
      <trkpt lat="46.185499" lon="15.065511">
        <ele>760.5207519552</ele>
        <time>2015-12-05T23:11:24Z</time>
      </trkpt>
      <trkpt lat="46.185512" lon="15.065386">
        <ele>761.8507357824</ele>
        <time>2015-12-05T23:11:33Z</time>
      </trkpt>
      <trkpt lat="46.185531" lon="15.065286">
        <ele>763.7607125568</ele>
        <time>2015-12-05T23:11:47Z</time>
      </trkpt>
      <trkpt lat="46.185526" lon="15.065187">
        <ele>765.7306886016</ele>
        <time>2015-12-05T23:11:56Z</time>
      </trkpt>
      <trkpt lat="46.185564" lon="15.065159">
        <ele>767.4706674432</ele>
        <time>2015-12-05T23:12:09Z</time>
      </trkpt>
      <trkpt lat="46.185573" lon="15.065131">
        <ele>768.2506579584</ele>
        <time>2015-12-05T23:12:23Z</time>
      </trkpt>
      <trkpt lat="46.185581" lon="15.065029">
        <ele>770.6306290176</ele>
        <time>2015-12-05T23:12:38Z</time>
      </trkpt>
      <trkpt lat="46.185542" lon="15.064897">
        <ele>772.8006026304</ele>
        <time>2015-12-05T23:12:49Z</time>
      </trkpt>
      <trkpt lat="46.185517" lon="15.064754">
        <ele>774.890577216</ele>
        <time>2015-12-05T23:12:59Z</time>
      </trkpt>
      <trkpt lat="46.185484" lon="15.064632">
        <ele>776.2105611648</ele>
        <time>2015-12-05T23:13:10Z</time>
      </trkpt>
      <trkpt lat="46.185463" lon="15.064460">
        <ele>776.3805590976</ele>
        <time>2015-12-05T23:13:21Z</time>
      </trkpt>
      <trkpt lat="46.185442" lon="15.064309">
        <ele>775.0205756352</ele>
        <time>2015-12-05T23:13:32Z</time>
      </trkpt>
      <trkpt lat="46.185440" lon="15.064290">
        <ele>774.890577216</ele>
        <time>2015-12-05T23:13:33Z</time>
      </trkpt>
      <trkpt lat="46.185464" lon="15.064183">
        <ele>773.4705944832</ele>
        <time>2015-12-05T23:13:44Z</time>
      </trkpt>
      <trkpt lat="46.185519" lon="15.064084">
        <ele>771.6006172224</ele>
        <time>2015-12-05T23:13:53Z</time>
      </trkpt>
      <trkpt lat="46.185576" lon="15.063968">
        <ele>769.5506421504</ele>
        <time>2015-12-05T23:14:04Z</time>
      </trkpt>
      <trkpt lat="46.185591" lon="15.063934">
        <ele>768.8106511488</ele>
        <time>2015-12-05T23:14:07Z</time>
      </trkpt>
      <trkpt lat="46.185591" lon="15.063772">
        <ele>767.1506713344</ele>
        <time>2015-12-05T23:14:19Z</time>
      </trkpt>
      <trkpt lat="46.185595" lon="15.063660">
        <ele>765.8706868992</ele>
        <time>2015-12-05T23:14:30Z</time>
      </trkpt>
      <trkpt lat="46.185611" lon="15.063576">
        <ele>765.7506883584</ele>
        <time>2015-12-05T23:14:41Z</time>
      </trkpt>
      <trkpt lat="46.185626" lon="15.063513">
        <ele>764.4507041664</ele>
        <time>2015-12-05T23:14:51Z</time>
      </trkpt>
      <trkpt lat="46.185634" lon="15.063438">
        <ele>763.6107143808</ele>
        <time>2015-12-05T23:15:01Z</time>
      </trkpt>
      <trkpt lat="46.185641" lon="15.063322">
        <ele>762.2607307968</ele>
        <time>2015-12-05T23:15:09Z</time>
      </trkpt>
      <trkpt lat="46.185640" lon="15.063308">
        <ele>762.040733472</ele>
        <time>2015-12-05T23:15:10Z</time>
      </trkpt>
      <trkpt lat="46.185609" lon="15.063213">
        <ele>760.5807512256</ele>
        <time>2015-12-05T23:15:21Z</time>
      </trkpt>
      <trkpt lat="46.185608" lon="15.063120">
        <ele>758.9007716544</ele>
        <time>2015-12-05T23:15:32Z</time>
      </trkpt>
      <trkpt lat="46.185571" lon="15.063074">
        <ele>758.3507783424</ele>
        <time>2015-12-05T23:15:47Z</time>
      </trkpt>
      <trkpt lat="46.185585" lon="15.062970">
        <ele>756.9707951232</ele>
        <time>2015-12-05T23:15:59Z</time>
      </trkpt>
      <trkpt lat="46.185622" lon="15.062883">
        <ele>754.7108226048</ele>
        <time>2015-12-05T23:16:08Z</time>
      </trkpt>
      <trkpt lat="46.185688" lon="15.062777">
        <ele>751.6308600576</ele>
        <time>2015-12-05T23:16:19Z</time>
      </trkpt>
      <trkpt lat="46.185731" lon="15.062669">
        <ele>749.2608888768</ele>
        <time>2015-12-05T23:16:29Z</time>
      </trkpt>
      <trkpt lat="46.185793" lon="15.062562">
        <ele>746.74091952</ele>
        <time>2015-12-05T23:16:39Z</time>
      </trkpt>
      <trkpt lat="46.185901" lon="15.062478">
        <ele>744.7509437184</ele>
        <time>2015-12-05T23:16:52Z</time>
      </trkpt>
      <trkpt lat="46.185985" lon="15.062463">
        <ele>744.6509449344</ele>
        <time>2015-12-05T23:17:01Z</time>
      </trkpt>
      <trkpt lat="46.186001" lon="15.062456">
        <ele>744.6309451776</ele>
        <time>2015-12-05T23:17:04Z</time>
      </trkpt>
      <trkpt lat="46.186065" lon="15.062376">
        <ele>744.3309488256</ele>
        <time>2015-12-05T23:17:12Z</time>
      </trkpt>
      <trkpt lat="46.186119" lon="15.062242">
        <ele>742.0609764288</ele>
        <time>2015-12-05T23:17:24Z</time>
      </trkpt>
      <trkpt lat="46.186125" lon="15.062221">
        <ele>741.9009783744</ele>
        <time>2015-12-05T23:17:27Z</time>
      </trkpt>
      <trkpt lat="46.186173" lon="15.062112">
        <ele>741.0809883456</ele>
        <time>2015-12-05T23:17:36Z</time>
      </trkpt>
      <trkpt lat="46.186210" lon="15.062017">
        <ele>740.1010002624</ele>
        <time>2015-12-05T23:17:43Z</time>
      </trkpt>
      <trkpt lat="46.186262" lon="15.061913">
        <ele>739.2510105984</ele>
        <time>2015-12-05T23:17:52Z</time>
      </trkpt>
      <trkpt lat="46.186277" lon="15.061897">
        <ele>739.091012544</ele>
        <time>2015-12-05T23:17:55Z</time>
      </trkpt>
      <trkpt lat="46.186326" lon="15.061852">
        <ele>738.7210170432</ele>
        <time>2015-12-05T23:18:03Z</time>
      </trkpt>
      <trkpt lat="46.186409" lon="15.061833">
        <ele>738.3610214208</ele>
        <time>2015-12-05T23:18:13Z</time>
      </trkpt>
      <trkpt lat="46.186424" lon="15.061817">
        <ele>738.191023488</ele>
        <time>2015-12-05T23:18:22Z</time>
      </trkpt>
      <trkpt lat="46.186426" lon="15.061825">
        <ele>738.3710212992</ele>
        <time>2015-12-05T23:18:41Z</time>
      </trkpt>
      <trkpt lat="46.186452" lon="15.061811">
        <ele>738.3110220288</ele>
        <time>2015-12-05T23:18:57Z</time>
      </trkpt>
      <trkpt lat="46.186426" lon="15.061813">
        <ele>737.8610275008</ele>
        <time>2015-12-05T23:19:08Z</time>
      </trkpt>
      <trkpt lat="46.186403" lon="15.061809">
        <ele>738.191023488</ele>
        <time>2015-12-05T23:19:31Z</time>
      </trkpt>
      <trkpt lat="46.186391" lon="15.061795">
        <ele>738.2310230016</ele>
        <time>2015-12-05T23:19:53Z</time>
      </trkpt>
      <trkpt lat="46.186368" lon="15.061800">
        <ele>738.5710188672</ele>
        <time>2015-12-05T23:20:18Z</time>
      </trkpt>
      <trkpt lat="46.186359" lon="15.061791">
        <ele>738.6510178944</ele>
        <time>2015-12-05T23:20:32Z</time>
      </trkpt>
      <trkpt lat="46.186357" lon="15.061789">
        <ele>738.4310205696</ele>
        <time>2015-12-05T23:20:51Z</time>
      </trkpt>
      <trkpt lat="46.186364" lon="15.061770">
        <ele>738.5710188672</ele>
        <time>2015-12-05T23:21:08Z</time>
      </trkpt>
      <trkpt lat="46.186374" lon="15.061770">
        <ele>738.6510178944</ele>
        <time>2015-12-05T23:21:08Z</time>
      </trkpt>
      <trkpt lat="46.186401" lon="15.061756">
        <ele>738.8310157056</ele>
        <time>2015-12-05T23:21:12Z</time>
      </trkpt>
      <trkpt lat="46.186534" lon="15.061695">
        <ele>739.8210036672</ele>
        <time>2015-12-05T23:21:22Z</time>
      </trkpt>
      <trkpt lat="46.186541" lon="15.061678">
        <ele>740.2309986816</ele>
        <time>2015-12-05T23:21:24Z</time>
      </trkpt>
      <trkpt lat="46.186593" lon="15.061615">
        <ele>740.7709921152</ele>
        <time>2015-12-05T23:21:31Z</time>
      </trkpt>
      <trkpt lat="46.186628" lon="15.061605">
        <ele>741.0509887104</ele>
        <time>2015-12-05T23:21:34Z</time>
      </trkpt>
      <trkpt lat="46.186669" lon="15.061621">
        <ele>741.3509850624</ele>
        <time>2015-12-05T23:21:41Z</time>
      </trkpt>
      <trkpt lat="46.186689" lon="15.061612">
        <ele>740.99098944</ele>
        <time>2015-12-05T23:21:51Z</time>
      </trkpt>
      <trkpt lat="46.186719" lon="15.061571">
        <ele>741.3809846976</ele>
        <time>2015-12-05T23:22:05Z</time>
      </trkpt>
      <trkpt lat="46.186715" lon="15.061575">
        <ele>741.6709811712</ele>
        <time>2015-12-05T23:22:16Z</time>
      </trkpt>
      <trkpt lat="46.186727" lon="15.061556">
        <ele>742.0309767936</ele>
        <time>2015-12-05T23:22:29Z</time>
      </trkpt>
      <trkpt lat="46.186725" lon="15.061564">
        <ele>741.9109782528</ele>
        <time>2015-12-05T23:22:39Z</time>
      </trkpt>
    </trkseg>
  </trk>
</gpx>
